Provisional Data: Kitchen Creek near Huntington Mills, PA


Please select a monitoring station.
Please select start date.
Please select start date.

Toggle Unit: C/F Toggle Unit: C/F
Sample Time Temperature (C) Temperature (F) Specific Conductivity (mS/cm) pH   Turbidity (NTU+) DO (mg/L)
8/1/2022 12:00:00 AM 19.24 66.632 0.069 7.15 1.95 9.37
8/1/2022 12:15:00 AM 19.21 66.578 0.069 7.1 1.98 9.38
8/1/2022 12:30:00 AM 19.18 66.524 0.069 7.16 2.05 9.38
8/1/2022 12:45:00 AM 19.14 66.452 0.069 7.12 1.99 9.39
8/1/2022 1:00:00 AM 19.11 66.398 0.069 7.13 2.02 9.4
8/1/2022 1:15:00 AM 19.08 66.344 0.069 7.12 1.95 9.4
8/1/2022 1:30:00 AM 19.05 66.29 0.069 7.13 2.12 9.4
8/1/2022 1:45:00 AM 19.02 66.236 0.069 7.13 2.1 9.41
8/1/2022 2:00:00 AM 18.98 66.164 0.069 7.14 2.02 9.4
8/1/2022 2:15:00 AM 18.94 66.092 0.069 7.14 2.05 9.4
8/1/2022 2:30:00 AM 18.88 65.984 0.069 7.14 2.14 9.42
8/1/2022 2:45:00 AM 18.84 65.912 0.069 7.15 2.17 9.42
8/1/2022 3:00:00 AM 18.79 65.82201 0.069 7.11 1.93 9.44
8/1/2022 3:15:00 AM 18.75 65.75 0.069 7.15 3.1 9.46
8/1/2022 3:30:00 AM 18.71 65.67799 0.069 7.13 2.83 9.47
8/1/2022 3:45:00 AM 18.66 65.588 0.069 7.14 4.97 9.49
8/1/2022 4:00:00 AM 18.62 65.516 0.069 7.17 2.3 9.5
8/1/2022 4:15:00 AM 18.58 65.444 0.069 7.18 1.52 9.51
8/1/2022 4:30:00 AM 18.54 65.372 0.069 7.2 1.26 9.52
8/1/2022 4:45:00 AM 18.51 65.318 0.069 7.18 0.91 9.54
8/1/2022 5:00:00 AM 18.48 65.264 0.069 7.2 0.78 9.55
8/1/2022 5:15:00 AM 18.45 65.21 0.069 7.2 1.01 9.55
8/1/2022 5:30:00 AM 18.42 65.156 0.068 7.22 0.86 9.56
8/1/2022 5:45:00 AM 18.39 65.102 0.068 7.2 0.98 9.57
8/1/2022 6:00:00 AM 18.36 65.048 0.068 7.2 0.95 9.58
8/1/2022 6:15:00 AM 18.34 65.012 0.068 7.23 1.03 9.59
8/1/2022 6:30:00 AM 18.32 64.976 0.068 7.18 0.99 9.6
8/1/2022 6:45:00 AM 18.29 64.922 0.068 7.11 0.92 9.62
8/1/2022 7:00:00 AM 18.28 64.904 0.068 7.22 0.85 9.64
8/1/2022 7:15:00 AM 18.26 64.868 0.068 7.22 0.88 9.67
8/1/2022 7:30:00 AM 18.25 64.85 0.068 7.17 0.88 9.72
8/1/2022 7:45:00 AM 18.24 64.832 0.068 7.16 0.74 9.77
8/1/2022 8:00:00 AM 18.24 64.832 0.068 7.15 1.04 9.8
8/1/2022 8:15:00 AM 18.24 64.832 0.068 7.14 0.89 9.84
8/1/2022 8:30:00 AM 18.24 64.832 0.068 7.1 0.84 9.88
8/1/2022 8:45:00 AM 18.25 64.85 0.068 7.11 0.86 9.92
8/1/2022 9:00:00 AM 18.26 64.868 0.068 7.13 0.91 9.96
8/1/2022 9:15:00 AM 18.27 64.886 0.067 7.13 0.92 9.97
8/1/2022 9:30:00 AM 18.28 64.904 0.067 7.14 0.87 10
8/1/2022 9:45:00 AM 18.31 64.958 0.067 7.16 0.81 10.07
8/1/2022 10:00:00 AM 18.36 65.048 0.067 7.19 0.87 10.17
8/1/2022 10:15:00 AM 18.39 65.102 0.067 7.21 1.04 10.16
8/1/2022 10:30:00 AM 18.42 65.156 0.067 7.22 0.85 10.13
8/1/2022 10:45:00 AM 18.45 65.21 0.067 7.22 0.86 10.12
8/1/2022 11:00:00 AM 18.49 65.282 0.067 7.23 0.85 10.15
8/1/2022 11:15:00 AM 18.53 65.354 0.067 7.25 0.9 10.19
8/1/2022 11:30:00 AM 18.6 65.48 0.066 7.28 0.94 10.24
8/1/2022 11:45:00 AM 18.68 65.624 0.066 7.31 0.77 10.3
8/1/2022 12:00:00 PM 18.77 65.786 0.066 7.34 0.89 10.31
8/1/2022 12:15:00 PM 18.83 65.894 0.066 7.34 0.74 10.26
8/1/2022 12:30:00 PM 18.91 66.038 0.066 7.35 0.87 10.24
8/1/2022 12:45:00 PM 19.03 66.254 0.066 7.38 0.75 10.26
8/1/2022 1:00:00 PM 19.32 66.776 0.066 7.36 0.78 10.15
8/1/2022 1:15:00 PM 19.53 67.154 0.066 7.35 0.91 10.08
8/1/2022 1:30:00 PM 19.73 67.514 0.066 7.34 0.91 10.04
8/1/2022 1:45:00 PM 19.94 67.892 0.066 7.32 0.79 9.97
8/1/2022 2:00:00 PM 20.06 68.108 0.066 7.34 0.79 9.96
8/1/2022 2:15:00 PM 20.18 68.324 0.066 7.36 0.88 9.92
8/1/2022 2:30:00 PM 20.24 68.432 0.066 7.32 0.78 9.8
8/1/2022 2:45:00 PM 20.41 68.738 0.066 7.33 0.84 9.79
8/1/2022 3:00:00 PM 20.53 68.954 0.066 7.33 0.88 9.73
8/1/2022 3:15:00 PM 20.64 69.152 0.066 7.35 0.77 9.74
8/1/2022 3:30:00 PM 20.68 69.224 0.066 7.35 0.76 9.72
8/1/2022 3:45:00 PM 20.65 69.17 0.066 7.32 0.91 9.61
8/1/2022 4:00:00 PM 20.63 69.134 0.066 7.28 0.85 9.55
8/1/2022 4:15:00 PM 20.59 69.062 0.066 7.27 0.81 9.55
8/1/2022 4:30:00 PM 20.53 68.954 0.067 7.22 0.89 9.51
8/1/2022 4:45:00 PM 20.49 68.882 0.067 7.19 0.75 9.49
8/1/2022 5:00:00 PM 20.45 68.81 0.067 7.2 0.98 9.46
8/1/2022 5:15:00 PM 20.43 68.774 0.067 7.19 0.78 9.44
8/1/2022 5:30:00 PM 20.42 68.756 0.067 7.19 0.77 9.47
8/1/2022 5:45:00 PM 20.39 68.702 0.067 7.2 0.75 9.43
8/1/2022 6:00:00 PM 20.36 68.648 0.067 7.21 0.86 9.41
8/1/2022 6:15:00 PM 20.32 68.576 0.068 7.2 0.72 9.41
8/1/2022 6:30:00 PM 20.27 68.486 0.068 7.2 0.79 9.38
8/1/2022 6:45:00 PM 20.22 68.396 0.068 7.2 0.73 9.36
8/1/2022 7:00:00 PM 20.17 68.306 0.068 7.21 0.67 9.34
8/1/2022 7:15:00 PM 20.12 68.216 0.068 7.07 0.75 9.32
8/1/2022 7:30:00 PM 20.07 68.126 0.068 7.19 0.72 9.32
8/1/2022 7:45:00 PM 20.02 68.036 0.068 7.2 0.73 9.3
8/1/2022 8:00:00 PM 19.98 67.964 0.068 7.19 0.8 9.29
8/1/2022 8:15:00 PM 19.93 67.874 0.068 7.17 0.78 9.28
8/1/2022 8:30:00 PM 19.87 67.766 0.068 7.18 0.81 9.27
8/1/2022 8:45:00 PM 19.82 67.676 0.069 7.17 0.98 9.26
8/1/2022 9:00:00 PM 19.77 67.586 0.069 7.16 1 9.26
8/1/2022 9:15:00 PM 19.73 67.514 0.069 7.15 0.85 9.27
8/1/2022 9:30:00 PM 19.68 67.424 0.069 7.16 0.86 9.28
8/1/2022 9:45:00 PM 19.64 67.352 0.069 7.17 1 9.28
8/1/2022 10:00:00 PM 19.59 67.262 0.069 7.18 0.79 9.3
8/1/2022 10:15:00 PM 19.55 67.19 0.069 7.14 0.81 9.31
8/1/2022 10:30:00 PM 19.5 67.1 0.069 7.14 0.97 9.31
8/1/2022 10:45:00 PM 19.46 67.028 0.069 7.21 0.81 9.33
8/1/2022 11:00:00 PM 19.41 66.938 0.069 7.25 0.81 9.34
8/1/2022 11:15:00 PM 19.37 66.866 0.069 7.24 0.84 9.35
8/1/2022 11:30:00 PM 19.33 66.794 0.069 7.25 0.84 9.36
8/1/2022 11:45:00 PM 19.29 66.722 0.069 7.25 1.04 9.37
8/2/2022 12:00:00 AM 19.25 66.65 0.069 7.24 0.91 9.37
8/2/2022 12:15:00 AM 19.21 66.578 0.069 7.25 0.85 9.38
8/2/2022 12:30:00 AM 19.17 66.506 0.069 7.24 0.77 9.38
8/2/2022 12:45:00 AM 19.14 66.452 0.069 7.23 0.76 9.39
8/2/2022 1:00:00 AM 19.11 66.398 0.069 7.24 0.75 9.4
8/2/2022 1:15:00 AM 19.07 66.326 0.069 7.23 0.76 9.41
8/2/2022 1:30:00 AM 19.04 66.272 0.069 7.23 0.77 9.42
8/2/2022 1:45:00 AM 19.01 66.218 0.069 7.23 0.78 9.42
8/2/2022 2:00:00 AM 18.98 66.164 0.069 7.23 0.81 9.43
8/2/2022 2:15:00 AM 18.95 66.11 0.069 7.23 0.73 9.43
8/2/2022 2:30:00 AM 18.92 66.056 0.069 7.23 0.68 9.44
8/2/2022 2:45:00 AM 18.89 66.002 0.069 7.22 0.89 9.44
8/2/2022 3:00:00 AM 18.86 65.948 0.069 7.22 0.65 9.45
8/2/2022 3:15:00 AM 18.82 65.876 0.069 7.21 0.85 9.46
8/2/2022 3:30:00 AM 18.79 65.82201 0.069 7.21 0.84 9.46
8/2/2022 3:45:00 AM 18.75 65.75 0.069 7.21 0.83 9.46
8/2/2022 4:00:00 AM 18.71 65.67799 0.069 7.21 0.78 9.47
8/2/2022 4:15:00 AM 18.68 65.624 0.069 7.21 0.75 9.48
8/2/2022 4:30:00 AM 18.64 65.552 0.069 7.2 0.74 9.49
8/2/2022 4:45:00 AM 18.61 65.498 0.069 7.22 0.88 9.5
8/2/2022 5:00:00 AM 18.58 65.444 0.069 7.21 0.91 9.5
8/2/2022 5:15:00 AM 18.55 65.39 0.069 7.2 1.02 9.5
8/2/2022 5:30:00 AM 18.52 65.336 0.069 7.2 0.89 9.51
8/2/2022 5:45:00 AM 18.48 65.264 0.069 7.15 0.96 9.52
8/2/2022 6:00:00 AM 18.44 65.192 0.069 7.19 1.05 9.53
8/2/2022 6:15:00 AM 18.41 65.138 0.069 7.18 3.67 9.54
8/2/2022 6:30:00 AM 18.37 65.066 0.069 7.17 1.01 9.57
8/2/2022 6:45:00 AM 18.35 65.03 0.069 7.15 1 9.61
8/2/2022 7:00:00 AM 18.34 65.012 0.069 7.18 0.99 9.68
8/2/2022 7:15:00 AM 18.34 65.012 0.069 7.17 0.91 9.71
8/2/2022 7:30:00 AM 18.34 65.012 0.069 7.19 0.92 9.75
8/2/2022 7:45:00 AM 18.35 65.03 0.069 7.19 1.02 9.77
8/2/2022 8:00:00 AM 18.37 65.066 0.069 7.19 0.91 9.81
8/2/2022 8:15:00 AM 18.38 65.084 0.069 7.19 0.91 9.86
8/2/2022 8:30:00 AM 18.4 65.12 0.069 7.18 0.84 9.88
8/2/2022 8:45:00 AM 18.42 65.156 0.068 7.18 0.84 9.85
8/2/2022 9:00:00 AM 18.47 65.246 0.068 7.18 0.77 9.86
8/2/2022 9:15:00 AM 18.53 65.354 0.068 7.21 0.87 9.87
8/2/2022 9:30:00 AM 18.6 65.48 0.068 7.19 0.71 9.91
8/2/2022 9:45:00 AM 18.71 65.67799 0.068 7.22 0.87 9.93
8/2/2022 10:00:00 AM 18.8 65.84 0.068 7.22 0.75 9.96
8/2/2022 10:15:00 AM 18.92 66.056 0.068 7.22 0.72 9.99
8/2/2022 10:30:00 AM 19.11 66.398 0.068 7.24 0.78 9.99
8/2/2022 10:45:00 AM 19.3 66.74 0.068 7.21 0.84 10
8/2/2022 11:00:00 AM 19.51 67.118 0.067 7.22 0.83 10.01
8/2/2022 11:15:00 AM 19.75 67.55 0.067 7.22 0.86 9.98
8/2/2022 11:30:00 AM 19.97 67.946 0.067 7.23 0.81 9.96
8/2/2022 11:45:00 AM 20.16 68.288 0.067 7.23 0.92 9.94
8/2/2022 12:00:00 PM 20.14 68.252 0.067 7.24 0.9 9.93
8/2/2022 12:15:00 PM 20.32 68.576 0.067 7.24 1.04 9.91
8/2/2022 12:30:00 PM 20.53 68.954 0.067 7.21 1.23 9.9
8/2/2022 12:45:00 PM 20.57 69.026 0.067 7.2 1.24 9.86
8/2/2022 1:00:00 PM 20.82 69.476 0.067 7.17 1.57 9.82
8/2/2022 1:15:00 PM 21.02 69.836 0.067 7.2 1.54 9.79
8/2/2022 1:30:00 PM 21.09 69.962 0.067 7.2 2.95 9.67
8/2/2022 1:45:00 PM 21.37 70.466 0.067 7.2 2.49 9.67
8/2/2022 2:00:00 PM 21.4 70.52 0.067 7.19 3.15 9.6
8/2/2022 2:15:00 PM 21.52 70.736 0.067 7.18 2.84 9.59
8/2/2022 2:30:00 PM 21.59 70.862 0.067 7.17 3.14 9.55
8/2/2022 2:45:00 PM 21.68 71.024 0.067 6.84 3.51 9.47
8/2/2022 3:00:00 PM 21.84 71.312 0.067 7.16 3.44 9.38
8/2/2022 3:15:00 PM 21.92 71.456 0.067 7.14 3.68 9.32
8/2/2022 3:30:00 PM 21.98 71.564 0.067 7.12 3.94 9.27
8/2/2022 3:45:00 PM 22.03 71.654 0.068 7.02 3.65 9.25
8/2/2022 4:00:00 PM 22.01 71.618 0.068 7.15 7.03 9.22
8/2/2022 4:15:00 PM 21.95 71.51 0.068 7.16 4.88 9.2
8/2/2022 4:30:00 PM 21.86 71.348 0.068 7.01 3.83 9.18
8/2/2022 4:45:00 PM 21.8 71.24 0.068 7.03 4.18 9.18
8/2/2022 5:00:00 PM 21.76 71.168 0.068 7.04 3.43 9.2
8/2/2022 5:15:00 PM 21.73 71.114 0.068 7.04 3.25 9.19
8/2/2022 5:30:00 PM 21.71 71.078 0.068 7.04 3.39 9.16
8/2/2022 5:45:00 PM 21.7 71.06 0.068 7.06 4.37 9.13
8/2/2022 6:00:00 PM 21.66 70.988 0.069 7.07 3.74 9.11
8/2/2022 6:15:00 PM 21.61 70.898 0.069 7.06 3.25 9.08
8/2/2022 6:30:00 PM 21.56 70.808 0.069 7.07 3.29 9.06
8/2/2022 6:45:00 PM 21.51 70.718 0.069 7.07 3 9.05
8/2/2022 7:00:00 PM 21.43 70.574 0.069 7.09 3.1 9.04
8/2/2022 7:15:00 PM 21.37 70.466 0.069 7.06 2.88 9.03
8/2/2022 7:30:00 PM 21.3 70.34 0.069 7.08 2.18 9.02
8/2/2022 7:45:00 PM 21.23 70.214 0.07 7.1 2.32 9.01
8/2/2022 8:00:00 PM 21.16 70.088 0.07 7.08 2.32 9.01
8/2/2022 8:15:00 PM 21.08 69.944 0.07 7.09 2.24 9
8/2/2022 8:30:00 PM 21 69.8 0.07 7.08 2.19 9
8/2/2022 8:45:00 PM 20.9 69.62 0.07 7.13 2.15 9.01
8/2/2022 9:00:00 PM 20.8 69.44 0.07 7.13 2.17 9.02
8/2/2022 9:15:00 PM 20.7 69.26 0.07 7.1 2.13 9.03
8/2/2022 9:30:00 PM 20.6 69.08 0.07 7.12 2.66 9.05
8/2/2022 9:45:00 PM 20.51 68.918 0.07 7.1 2.16 9.08
8/2/2022 10:00:00 PM 20.41 68.738 0.07 7.1 2.04 9.1
8/2/2022 10:15:00 PM 20.32 68.576 0.07 7.06 1.95 9.12
8/2/2022 10:30:00 PM 20.22 68.396 0.07 7.14 2 9.14
8/2/2022 10:45:00 PM 20.13 68.234 0.07 7.08 2.07 9.16
8/2/2022 11:00:00 PM 20.03 68.054 0.07 7.13 1.98 9.19
8/2/2022 11:15:00 PM 19.94 67.892 0.07 7.13 2.07 9.21
8/2/2022 11:30:00 PM 19.85 67.73 0.07 7.09 2.06 9.23
8/2/2022 11:45:00 PM 19.75 67.55 0.07 7.07 2.03 9.25
8/3/2022 12:00:00 AM 19.66 67.388 0.07 7.04 2.02 9.26
8/3/2022 12:15:00 AM 19.57 67.226 0.07 7.06 2.09 9.29
8/3/2022 12:30:00 AM 19.48 67.064 0.07 6.95 2.04 9.31
8/3/2022 12:45:00 AM 19.39 66.902 0.07 7.05 2.1 9.33
8/3/2022 1:00:00 AM 19.31 66.758 0.07 7.03 2.03 9.35
8/3/2022 1:15:00 AM 19.22 66.596 0.07 7.02 2.03 9.36
8/3/2022 1:30:00 AM 19.14 66.452 0.07 7.05 2.07 9.39
8/3/2022 1:45:00 AM 19.06 66.308 0.07 6.99 2.04 9.41
8/3/2022 2:00:00 AM 18.98 66.164 0.07 6.99 2.05 9.43
8/3/2022 2:15:00 AM 18.9 66.02 0.07 6.91 2.03 9.44
8/3/2022 2:30:00 AM 18.82 65.876 0.07 7.03 2.02 9.46
8/3/2022 2:45:00 AM 18.75 65.75 0.07 6.97 2.08 9.48
8/3/2022 3:00:00 AM 18.68 65.624 0.07 7.09 2.04 9.5
8/3/2022 3:15:00 AM 18.61 65.498 0.07 6.97 2.06 9.52
8/3/2022 3:30:00 AM 18.54 65.372 0.07 6.94 2.04 9.52
8/3/2022 3:45:00 AM 18.47 65.246 0.07 6.94 2.06 9.55
8/3/2022 4:00:00 AM 18.41 65.138 0.07 6.9 2.06 9.55
8/3/2022 4:15:00 AM 18.35 65.03 0.07 6.87 2.12 9.58
8/3/2022 4:30:00 AM 18.28 64.904 0.07 6.92 2.12 9.59
8/3/2022 4:45:00 AM 18.22 64.796 0.07 6.99 2.12 9.61
8/3/2022 5:00:00 AM 18.16 64.688 0.07 6.91 2.09 9.62
8/3/2022 5:15:00 AM 18.1 64.58 0.069 7.02 2.14 9.63
8/3/2022 5:30:00 AM 18.04 64.472 0.069 6.88 2.15 9.66
8/3/2022 5:45:00 AM 17.98 64.364 0.069 6.79 2.04 9.65
8/3/2022 6:00:00 AM 17.92 64.256 0.069 7 2.04 9.68
8/3/2022 6:15:00 AM 17.86 64.148 0.069 6.86 2.12 9.7
8/3/2022 6:30:00 AM 17.81 64.058 0.069 6.94 2.1 9.72
8/3/2022 6:45:00 AM 17.76 63.968 0.069 6.91 2.15 9.75
8/3/2022 7:00:00 AM 17.72 63.896 0.069 6.95 2.14 9.77
8/3/2022 7:15:00 AM 17.68 63.824 0.069 6.95 2.12 9.81
8/3/2022 7:30:00 AM 17.66 63.788 0.069 6.98 2.16 9.83
8/3/2022 7:45:00 AM 17.65 63.77 0.069 6.92 2.15 9.86
8/3/2022 8:00:00 AM 17.65 63.77 0.069 7 2.17 9.88
8/3/2022 8:15:00 AM 17.67 63.806 0.069 6.97 2.11 9.9
8/3/2022 8:30:00 AM 17.69 63.842 0.069 6.94 2.13 9.93
8/3/2022 8:45:00 AM 17.74 63.932 0.069 6.93 2.13 9.96
8/3/2022 9:00:00 AM 17.79 64.022 0.069 6.98 2.16 9.98
8/3/2022 9:15:00 AM 17.85 64.13 0.069 6.89 2.11 10
8/3/2022 9:30:00 AM 17.92 64.256 0.069 6.95 2.1 10.02
8/3/2022 9:45:00 AM 18.02 64.436 0.068 6.94 2.06 10.02
8/3/2022 10:00:00 AM 18.13 64.634 0.068 6.9 2.06 10.03
8/3/2022 10:15:00 AM 18.26 64.868 0.068 6.96 2.08 10.05
8/3/2022 10:30:00 AM 18.43 65.174 0.068 6.64 2.04 10.08
8/3/2022 10:45:00 AM 18.62 65.516 0.068 6.82 2.03 10.11
8/3/2022 11:00:00 AM 18.83 65.894 0.068 6.84 2.05 10.12
8/3/2022 11:15:00 AM 19.12 66.416 0.067 7.03 1.99 10.15
8/3/2022 11:30:00 AM 19.25 66.65 0.067 6.86 2.03 10.11
8/3/2022 11:45:00 AM 19.45 67.01 0.067 6.5 1.96 10.08
8/3/2022 12:00:00 PM 19.67 67.406 0.067 6.92 2.01 10.03
8/3/2022 12:15:00 PM 19.82 67.676 0.067 6.96 2.03 9.99
8/3/2022 12:30:00 PM 19.94 67.892 0.067 6.94 1.98 9.95
8/3/2022 12:45:00 PM 20.08 68.144 0.067 6.52 1.89 9.91
8/3/2022 1:00:00 PM 20.25 68.45 0.067 6.64 1.86 9.86
8/3/2022 1:15:00 PM 20.46 68.828 0.067 6.88 1.87 9.8
8/3/2022 1:30:00 PM 20.7 69.26 0.067 6.81 1.91 9.73
8/3/2022 1:45:00 PM 20.97 69.746 0.067 6.94 1.94 9.65
8/3/2022 2:00:00 PM 21.22 70.196 0.067 6.54 1.91 9.57
8/3/2022 2:15:00 PM 21.44 70.592 0.067 6.91 1.94 9.49
8/3/2022 2:30:00 PM 21.61 70.898 0.067 6.99 1.94 9.42
8/3/2022 2:45:00 PM 21.71 71.078 0.067 7 1.93 9.38
8/3/2022 3:00:00 PM 21.77 71.186 0.068 6.77 1.91 9.36
8/3/2022 3:15:00 PM 21.79 71.222 0.068 6.89 1.91 9.33
8/3/2022 3:30:00 PM 21.77 71.186 0.068 6.58 1.87 9.3
8/3/2022 3:45:00 PM 21.78 71.204 0.068 6.79 1.92 9.29
8/3/2022 4:00:00 PM 21.77 71.186 0.068 6.78 1.88 9.26
8/3/2022 4:15:00 PM 21.74 71.132 0.068 6.95 1.91 9.23
8/3/2022 4:30:00 PM 21.67 71.006 0.068 6.99 1.88 9.22
8/3/2022 4:45:00 PM 21.6 70.88 0.068 6.85 1.93 9.22
8/3/2022 5:00:00 PM 21.53 70.754 0.068 6.97 1.92 9.21
8/3/2022 5:15:00 PM 21.48 70.664 0.068 6.99 1.93 9.21
8/3/2022 5:30:00 PM 21.45 70.61 0.069 7 1.93 9.2
8/3/2022 5:45:00 PM 21.41 70.538 0.069 6.95 1.93 9.18
8/3/2022 6:00:00 PM 21.37 70.466 0.069 7.08 1.91 9.17
8/3/2022 6:15:00 PM 21.32 70.376 0.069 6.94 1.93 9.15
8/3/2022 6:30:00 PM 21.27 70.286 0.069 6.93 1.96 9.14
8/3/2022 6:45:00 PM 21.21 70.17799 0.069 6.91 1.89 9.12
8/3/2022 7:00:00 PM 21.14 70.052 0.069 6.93 1.97 9.12
8/3/2022 7:15:00 PM 21.08 69.944 0.07 6.87 1.86 9.11
8/3/2022 7:30:00 PM 21.01 69.818 0.07 6.8 1.9 9.1
8/3/2022 7:45:00 PM 20.94 69.692 0.07 6.95 1.89 9.09
8/3/2022 8:00:00 PM 20.86 69.548 0.07 6.92 1.99 9.08
8/3/2022 8:15:00 PM 20.78 69.404 0.07 6.9 1.95 9.06
8/3/2022 8:30:00 PM 20.7 69.26 0.07 6.97 1.91 9.06
8/3/2022 8:45:00 PM 20.63 69.134 0.07 6.82 2.83 9.07
8/3/2022 9:00:00 PM 20.55 68.99 0.07 6.89 1.99 9.08
8/3/2022 9:15:00 PM 20.47 68.846 0.07 6.96 2.01 9.09
8/3/2022 9:30:00 PM 20.4 68.72 0.07 6.9 1.98 9.12
8/3/2022 9:45:00 PM 20.32 68.576 0.07 6.87 2.02 9.13
8/3/2022 10:00:00 PM 20.24 68.432 0.07 6.94 2.01 9.15
8/3/2022 10:15:00 PM 20.16 68.288 0.07 6.93 1.89 9.17
8/3/2022 10:30:00 PM 20.09 68.162 0.07 6.92 2.06 9.18
8/3/2022 10:45:00 PM 20.01 68.018 0.07 6.98 1.97 9.2
8/3/2022 11:00:00 PM 19.94 67.892 0.07 7.05 2.13 9.21
8/3/2022 11:15:00 PM 19.87 67.766 0.07 7.13 2.57 9.23
8/3/2022 11:30:00 PM 19.8 67.64 0.07 6.93 2.47 9.25
8/3/2022 11:45:00 PM 19.73 67.514 0.07 6.91 2.21 9.27
8/4/2022 12:00:00 AM 19.65 67.37 0.07 6.93 1.89 9.28
8/4/2022 12:15:00 AM 19.58 67.244 0.07 6.96 2.02 9.3
8/4/2022 12:30:00 AM 19.52 67.136 0.07 6.92 2.02 9.32
8/4/2022 12:45:00 AM 19.45 67.01 0.07 7.04 2.2 9.33
8/4/2022 1:00:00 AM 19.39 66.902 0.07 7.01 2.29 9.34
8/4/2022 1:15:00 AM 19.32 66.776 0.07 7 2.79 9.36
8/4/2022 1:30:00 AM 19.26 66.668 0.07 6.9 3.43 9.37
8/4/2022 1:45:00 AM 19.19 66.542 0.07 7.07 3.44 9.38
8/4/2022 2:00:00 AM 19.13 66.434 0.07 6.95 3.37 9.39
8/4/2022 2:15:00 AM 19.07 66.326 0.07 7.01 3.55 9.43
8/4/2022 2:30:00 AM 19.01 66.218 0.07 6.98 3.6 9.42
8/4/2022 2:45:00 AM 18.95 66.11 0.07 6.89 3.44 9.46
8/4/2022 3:00:00 AM 18.89 66.002 0.07 7.09 3.04 9.44
8/4/2022 3:15:00 AM 18.84 65.912 0.07 7.12 3.06 9.47
8/4/2022 3:30:00 AM 18.78 65.804 0.07 7.07 3.34 9.5
8/4/2022 3:45:00 AM 18.72 65.696 0.07 7.15 3.21 9.49
8/4/2022 4:00:00 AM 18.67 65.606 0.07 6.95 3.23 9.53
8/4/2022 4:15:00 AM 18.62 65.516 0.07 6.92 3.6 9.52
8/4/2022 4:30:00 AM 18.57 65.426 0.07 6.97 3.4 9.54
8/4/2022 4:45:00 AM 18.52 65.336 0.07 6.9 3.28 9.54
8/4/2022 5:00:00 AM 18.48 65.264 0.07 6.95 3.22 9.55
8/4/2022 5:15:00 AM 18.44 65.192 0.07 6.97 3.61 9.59
8/4/2022 5:30:00 AM 18.4 65.12 0.07 7.01 3.6 9.59
8/4/2022 5:45:00 AM 18.35 65.03 0.07 7.15 3.33 9.59
8/4/2022 6:00:00 AM 18.31 64.958 0.07 6.81 3.47 9.6
8/4/2022 6:15:00 AM 18.28 64.904 0.07 6.96 3.22 9.61
8/4/2022 6:30:00 AM 18.25 64.85 0.07 6.97 2.98 9.64
8/4/2022 6:45:00 AM 18.22 64.796 0.07 6.94 2.96 9.68
8/4/2022 7:00:00 AM 18.2 64.76 0.07 6.95 3 9.69
8/4/2022 7:15:00 AM 18.19 64.742 0.07 6.85 3.41 9.72
8/4/2022 7:30:00 AM 18.19 64.742 0.069 6.82 2.85 9.75
8/4/2022 7:45:00 AM 18.2 64.76 0.069 6.95 3.53 9.78
8/4/2022 8:00:00 AM 18.22 64.796 0.069 6.98 3.6 9.81
8/4/2022 8:15:00 AM 18.25 64.85 0.069 6.95 3.29 9.83
8/4/2022 8:30:00 AM 18.3 64.94 0.069 6.95 3.49 9.86
8/4/2022 8:45:00 AM 18.36 65.048 0.069 6.86 3.8 9.9
8/4/2022 9:00:00 AM 18.43 65.174 0.069 7 4.62 9.98
8/4/2022 9:15:00 AM 18.5 65.3 0.069 6.86 3.8 10.02
8/4/2022 9:30:00 AM 18.58 65.444 0.068 6.8 2.76 10.05
8/4/2022 9:45:00 AM 18.7 65.66 0.068 6.74 4.25 10.02
8/4/2022 10:00:00 AM 18.82 65.876 0.068 6.77 4.36 10
8/4/2022 10:15:00 AM 18.97 66.146 0.068 6.78 3.8 10
8/4/2022 10:30:00 AM 19.15 66.47 0.068 6.89 2.93 10
8/4/2022 10:45:00 AM 19.34 66.812 0.068 6.91 2.85 10.01
8/4/2022 11:00:00 AM 19.57 67.226 0.068 6.95 2.87 10.02
8/4/2022 11:15:00 AM 19.76 67.568 0.067 6.98 4.36 10.03
8/4/2022 11:30:00 AM 20.05 68.09 0.067 6.95 3.57 10.02
8/4/2022 11:45:00 AM 20.32 68.576 0.067 6.91 2.78 9.98
8/4/2022 12:00:00 PM 20.55 68.99 0.067 6.89 2.7 9.93
8/4/2022 12:15:00 PM 20.74 69.332 0.067 6.87 2.96 9.88
8/4/2022 12:30:00 PM 20.96 69.728 0.067 6.91 2.58 9.84
8/4/2022 12:45:00 PM 21.17 70.106 0.067 6.81 2.56 9.78
8/4/2022 1:00:00 PM 21.34 70.412 0.067 6.78 3.35 9.73
8/4/2022 1:15:00 PM 21.58 70.844 0.067 6.79 2.59 9.67
8/4/2022 1:30:00 PM 21.77 71.186 0.067 6.75 2.6 9.62
8/4/2022 1:45:00 PM 22.06 71.708 0.067 6.91 3.59 9.54
8/4/2022 2:00:00 PM 22.29 72.122 0.067 6.59 3.43 9.44
8/4/2022 2:15:00 PM 22.55 72.59 0.067 6.71 3.5 9.37
8/4/2022 2:30:00 PM 22.78 73.004 0.067 6.65 3.39 9.29
8/4/2022 2:45:00 PM 22.98 73.364 0.067 6.74 3.5 9.24
8/4/2022 3:00:00 PM 23.1 73.58 0.067 6.5 3.67 9.22
8/4/2022 3:15:00 PM 23.13 73.634 0.067 5.62 3.43 9.14
8/4/2022 3:30:00 PM 23.18 73.724 0.067 6.17 3.68 9.21
8/4/2022 3:45:00 PM 23.12 73.616 0.067 6.35 4.17 9.22
8/4/2022 4:00:00 PM 23.05 73.49 0.067 6.98 3.76 9.2
8/4/2022 4:15:00 PM 22.99 73.382 0.067 6.68 3.35 9.18
8/4/2022 4:30:00 PM 22.91 73.238 0.067 6.27 3.29 9.17
8/4/2022 4:45:00 PM 22.82 73.076 0.068 6.71 2.8 9.16
8/4/2022 5:00:00 PM 22.75 72.95 0.068 6.83 3.63 9.17
8/4/2022 5:15:00 PM 22.69 72.842 0.068 6.87 3.2 9.17
8/4/2022 5:30:00 PM 22.64 72.752 0.068 6.83 3.38 9.16
8/4/2022 5:45:00 PM 22.6 72.68 0.068 6.83 3.55 9.11
8/4/2022 6:00:00 PM 22.56 72.608 0.068 6.66 3.36 9.06
8/4/2022 6:15:00 PM 22.53 72.554 0.068 6.8 3.15 9.08
8/4/2022 6:30:00 PM 22.49 72.482 0.068 6.76 3.32 9.07
8/4/2022 6:45:00 PM 22.44 72.392 0.068 6.61 3.14 9.03
8/4/2022 7:00:00 PM 22.37 72.266 0.069 6.73 3.3 8.96
8/4/2022 7:15:00 PM 22.31 72.158 0.069 6.87 3.19 8.92
8/4/2022 7:30:00 PM 22.24 72.032 0.069 6.91 3.71 8.89
8/4/2022 7:45:00 PM 22.17 71.906 0.069 6.63 4.02 8.87
8/4/2022 8:00:00 PM 22.1 71.78 0.07 6.65 4.03 8.83
8/4/2022 8:15:00 PM 22.02 71.636 0.07 6.83 2.76 8.82
8/4/2022 8:30:00 PM 21.95 71.51 0.07 6.72 2.98 8.81
8/4/2022 8:45:00 PM 21.88 71.384 0.07 6.63 2.92 8.82
8/4/2022 9:00:00 PM 21.82 71.276 0.07 6.78 4.47 8.83
8/4/2022 9:15:00 PM 21.75 71.15 0.07 6.97 3.74 8.81
8/4/2022 9:30:00 PM 21.68 71.024 0.07 6.95 4.32 8.83
8/4/2022 9:45:00 PM 21.62 70.916 0.07 7.03 4.08 8.86
8/4/2022 10:00:00 PM 21.54 70.772 0.07 6.83 3.64 8.89
8/4/2022 10:15:00 PM 21.47 70.646 0.07 6.72 4.24 8.88
8/4/2022 10:30:00 PM 21.4 70.52 0.07 6.79 3.73 8.9
8/4/2022 10:45:00 PM 21.33 70.394 0.07 6.87 3.86 8.91
8/4/2022 11:00:00 PM 21.27 70.286 0.07 6.68 3.04 8.93
8/4/2022 11:15:00 PM 21.21 70.17799 0.07 6.72 3.2 8.95
8/4/2022 11:30:00 PM 21.15 70.07 0.07 6.69 3.65 8.97
8/4/2022 11:45:00 PM 21.1 69.98 0.07 6.9 4.33 8.98
8/5/2022 12:00:00 AM 21.04 69.872 0.07 6.78 3.36 9.01
8/5/2022 12:15:00 AM 20.99 69.782 0.07 6.66 3.74 9.01
8/5/2022 12:30:00 AM 20.93 69.674 0.07 6.85 3.68 9.02
8/5/2022 12:45:00 AM 20.88 69.584 0.07 6.7 3.8 9.04
8/5/2022 1:00:00 AM 20.83 69.494 0.07 6.7 3.94 9.04
8/5/2022 1:15:00 AM 20.78 69.404 0.07 6.58 3.72 9.05
8/5/2022 1:30:00 AM 20.74 69.332 0.07 6.88 3.25 9.06
8/5/2022 1:45:00 AM 20.69 69.242 0.07 6.65 3.87 9.06
8/5/2022 2:00:00 AM 20.64 69.152 0.07 6.85 3.8 9.07
8/5/2022 2:15:00 AM 20.59 69.062 0.07 6.98 3.06 9.09
8/5/2022 2:30:00 AM 20.54 68.972 0.07 6.68 2.8 9.1
8/5/2022 2:45:00 AM 20.49 68.882 0.07 6.74 3.94 9.13
8/5/2022 3:00:00 AM 20.43 68.774 0.07 6.86 4.07 9.13
8/5/2022 3:15:00 AM 20.38 68.684 0.07 6.72 2.71 9.13
8/5/2022 3:30:00 AM 20.33 68.594 0.07 6.69 3.39 9.16
8/5/2022 3:45:00 AM 20.28 68.504 0.07 6.71 3.87 9.16
8/5/2022 4:00:00 AM 20.23 68.414 0.07 6.72 3.13 9.18
8/5/2022 4:15:00 AM 20.18 68.324 0.07 6.59 2.99 9.18
8/5/2022 4:30:00 AM 20.13 68.234 0.07 6.89 3.49 9.19
8/5/2022 4:45:00 AM 20.09 68.162 0.07 6.82 3.8 9.19
8/5/2022 5:00:00 AM 20.04 68.07201 0.07 6.75 2.81 9.22
8/5/2022 5:15:00 AM 20 68 0.07 6.67 2.97 9.22
8/5/2022 5:30:00 AM 19.96 67.92799 0.07 6.8 3.78 9.23
8/5/2022 5:45:00 AM 19.91 67.838 0.07 6.77 3.53 9.24
8/5/2022 6:00:00 AM 19.87 67.766 0.07 6.82 3.61 9.25
8/5/2022 6:15:00 AM 19.82 67.676 0.07 6.81 3.34 9.26
8/5/2022 6:30:00 AM 19.78 67.604 0.07 6.87 3.46 9.3
8/5/2022 6:45:00 AM 19.75 67.55 0.07 6.61 3.18 9.35
8/5/2022 7:00:00 AM 19.72 67.496 0.07 6.76 3.25 9.4
8/5/2022 7:15:00 AM 19.71 67.478 0.07 6.69 3.51 9.45
8/5/2022 7:30:00 AM 19.7 67.46 0.07 6.72 2.84 9.47
8/5/2022 7:45:00 AM 19.7 67.46 0.069 6.58 3.01 9.52
8/5/2022 8:00:00 AM 19.71 67.478 0.069 6.65 2.54 9.55
8/5/2022 8:15:00 AM 19.71 67.478 0.069 6.61 3.24 9.56
8/5/2022 8:30:00 AM 19.73 67.514 0.069 6.62 3.76 9.63
8/5/2022 8:45:00 AM 19.77 67.586 0.069 6.7 2.7 9.64
8/5/2022 9:00:00 AM 19.79 67.622 0.069 6.62 3.05 9.68
8/5/2022 9:15:00 AM 19.84 67.712 0.069 6.75 3.71 9.77
8/5/2022 9:30:00 AM 19.88 67.784 0.068 6.89 3.76 9.79
8/5/2022 9:45:00 AM 19.96 67.92799 0.068 6.76 4.31 9.88
8/5/2022 10:00:00 AM 20.04 68.07201 0.068 6.65 4.08 9.92
8/5/2022 10:15:00 AM 20.16 68.288 0.068 6.79 3.15 9.95
8/5/2022 10:30:00 AM 20.27 68.486 0.067 6.75 4.53 9.97
8/5/2022 10:45:00 AM 20.45 68.81 0.067 6.81 3.47 9.98
8/5/2022 11:00:00 AM 20.58 69.044 0.067 6.75 3.15 9.98
8/5/2022 11:15:00 AM 20.68 69.224 0.067 6.91 4.25 9.96
8/5/2022 11:30:00 AM 20.7 69.26 0.067 6.92 2.78 9.91
8/5/2022 11:45:00 AM 20.82 69.476 0.067 6.81 3.09 9.93
8/5/2022 12:00:00 PM 21.04 69.872 0.067 6.8 2.54 9.92
8/5/2022 12:15:00 PM 21.31 70.358 0.067 6.86 4.12 9.85
8/5/2022 12:30:00 PM 21.43 70.574 0.067 6.84 2.78 9.81
8/5/2022 12:45:00 PM 21.66 70.988 0.067 6.75 4.25 9.82
8/5/2022 1:00:00 PM 21.78 71.204 0.067 6.85 3.63 9.78
8/5/2022 1:15:00 PM 21.89 71.402 0.067 6.69 3.72 9.71
8/5/2022 1:30:00 PM 22.09 71.762 0.067 6.6 3.95 9.69
8/5/2022 1:45:00 PM 22.3 72.14 0.067 6.76 3.59 9.64
8/5/2022 2:00:00 PM 22.53 72.554 0.067 6.68 3.79 9.58
8/5/2022 2:15:00 PM 22.65 72.77 0.067 7.07 3.78 9.5
8/5/2022 2:30:00 PM 22.75 72.95 0.067 6.86 3.95 9.43
8/5/2022 2:45:00 PM 22.79 73.022 0.067 6.89 3.51 9.4
8/5/2022 3:00:00 PM 22.8 73.04 0.067 6.85 3.81 9.37
8/5/2022 3:15:00 PM 22.82 73.076 0.067 7.06 4.81 9.35
8/5/2022 3:30:00 PM 22.86 73.148 0.067 6.78 4.76 9.32
8/5/2022 3:45:00 PM 22.93 73.274 0.067 6.86 4.76 9.31
8/5/2022 4:00:00 PM 22.96 73.328 0.067 6.91 3.76 9.26
8/5/2022 4:15:00 PM 22.9 73.22 0.067 6.84 3.73 9.18
8/5/2022 4:30:00 PM 22.8 73.04 0.068 6.84 4.54 9.11
8/5/2022 4:45:00 PM 22.7 72.86 0.068 7.08 3.99 8.96
8/5/2022 5:00:00 PM 22.58 72.644 0.068 6.92 2.03 8.86
8/5/2022 5:15:00 PM 22.48 72.464 0.066 6.88 2.11 8.78
8/5/2022 5:30:00 PM 22.39 72.302 0.061 7.1 3.77 8.87
8/5/2022 5:45:00 PM 22.31 72.158 0.059 6.99 3.5 8.88
8/5/2022 6:00:00 PM 22.26 72.068 0.057 7.01 2.41 8.86
8/5/2022 6:15:00 PM 22.21 71.978 0.058 7.03 2.06 8.85
8/5/2022 6:30:00 PM 22.16 71.888 0.059 7.02 1.75 8.84
8/5/2022 6:45:00 PM 22.11 71.798 0.061 7.05 1.34 8.84
8/5/2022 7:00:00 PM 22.06 71.708 0.062 7.02 1.2 8.9
8/5/2022 7:15:00 PM 22 71.6 0.062 7.03 1.14 8.86
8/5/2022 7:30:00 PM 21.94 71.492 0.063 7.05 1.32 8.83
8/5/2022 7:45:00 PM 21.88 71.384 0.064 7.1 1.2 8.81
8/5/2022 8:00:00 PM 21.82 71.276 0.065 7.08 1.09 8.81
8/5/2022 8:15:00 PM 21.76 71.168 0.066 7.09 2.81 8.8
8/5/2022 8:30:00 PM 21.71 71.078 0.066 6.99 4.07 8.81
8/5/2022 8:45:00 PM 21.65 70.97 0.066 7 3.82 8.8
8/5/2022 9:00:00 PM 21.59 70.862 0.066 7.06 3.45 8.81
8/5/2022 9:15:00 PM 21.53 70.754 0.066 7.07 3.48 8.82
8/5/2022 9:30:00 PM 21.47 70.646 0.066 7.08 11.57 8.83
8/5/2022 9:45:00 PM 21.41 70.538 0.067 7.07 4.58 8.86
8/5/2022 10:00:00 PM 21.35 70.43 0.067 7.16 1.69 8.88
8/5/2022 10:15:00 PM 21.1 69.98 0.068 6.96 27.55 9.15
8/5/2022 10:30:00 PM 20.88 69.584 0.068 6.94 9.12 9.28
8/5/2022 10:45:00 PM 20.73 69.314 0.068 6.92 7.52 9.33
8/5/2022 11:00:00 PM 20.67 69.206 0.067 6.93 6.94 9.35
8/5/2022 11:15:00 PM 20.65 69.17 0.067 6.93 6 9.35
8/5/2022 11:30:00 PM 20.65 69.17 0.067 6.94 5.39 9.36
8/5/2022 11:45:00 PM 20.63 69.134 0.066 6.94 4.55 9.36
8/6/2022 12:00:00 AM 20.6 69.08 0.064 6.96 4.68 9.37
8/6/2022 12:15:00 AM 20.56 69.008 0.063 6.92 4.53 9.38
8/6/2022 12:30:00 AM 20.52 68.936 0.062 6.89 4.68 9.39
8/6/2022 12:45:00 AM 20.47 68.846 0.061 6.9 4.68 9.4
8/6/2022 1:00:00 AM 20.43 68.774 0.061 6.89 4.45 9.42
8/6/2022 1:15:00 AM 20.38 68.684 0.061 6.9 3.93 9.43
8/6/2022 1:30:00 AM 20.33 68.594 0.06 6.91 3.74 9.44
8/6/2022 1:45:00 AM 20.28 68.504 0.06 6.91 3.68 9.45
8/6/2022 2:00:00 AM 20.23 68.414 0.059 6.9 3.22 9.46
8/6/2022 2:15:00 AM 20.18 68.324 0.059 6.9 2.98 9.47
8/6/2022 2:30:00 AM 20.13 68.234 0.058 6.62 3.47 9.48
8/6/2022 2:45:00 AM 20.08 68.144 0.058 6.82 2.89 9.49
8/6/2022 3:00:00 AM 20.02 68.036 0.057 6.86 2.91 9.49
8/6/2022 3:15:00 AM 19.98 67.964 0.057 6.86 3.38 9.51
8/6/2022 3:30:00 AM 19.93 67.874 0.056 6.87 2.85 9.52
8/6/2022 3:45:00 AM 19.88 67.784 0.056 6.89 2.77 9.53
8/6/2022 4:00:00 AM 19.83 67.694 0.055 6.89 2.73 9.54
8/6/2022 4:15:00 AM 19.78 67.604 0.055 6.89 2.92 9.55
8/6/2022 4:30:00 AM 19.73 67.514 0.055 6.88 2.85 9.55
8/6/2022 4:45:00 AM 19.69 67.442 0.055 6.88 2.56 9.56
8/6/2022 5:00:00 AM 19.64 67.352 0.054 6.87 2.56 9.57
8/6/2022 5:15:00 AM 19.6 67.28 0.054 6.86 2.69 9.57
8/6/2022 5:30:00 AM 19.55 67.19 0.054 6.84 2.68 9.58
8/6/2022 5:45:00 AM 19.51 67.118 0.054 6.83 2.82 9.59
8/6/2022 6:00:00 AM 19.47 67.046 0.054 6.84 2.78 9.6
8/6/2022 6:15:00 AM 19.43 66.974 0.055 6.84 2.75 9.61
8/6/2022 6:30:00 AM 19.4 66.92 0.055 6.84 2.98 9.63
8/6/2022 6:45:00 AM 19.37 66.866 0.055 6.86 2.75 9.66
8/6/2022 7:00:00 AM 19.35 66.83 0.055 6.87 2.55 9.67
8/6/2022 7:15:00 AM 19.33 66.794 0.055 6.88 2.59 9.69
8/6/2022 7:30:00 AM 19.32 66.776 0.055 6.89 2.4 9.71
8/6/2022 7:45:00 AM 19.32 66.776 0.055 6.91 2.33 9.75
8/6/2022 8:00:00 AM 19.32 66.776 0.056 6.92 2.33 9.79
8/6/2022 8:15:00 AM 19.33 66.794 0.056 6.93 2.32 9.81
8/6/2022 8:30:00 AM 19.34 66.812 0.055 6.95 2.19 9.86
8/6/2022 8:45:00 AM 19.36 66.848 0.055 6.97 2.18 9.89
8/6/2022 9:00:00 AM 19.39 66.902 0.055 6.98 2.14 9.92
8/6/2022 9:15:00 AM 19.44 66.992 0.055 6.98 2.05 9.95
8/6/2022 9:30:00 AM 19.48 67.064 0.055 7 2.15 9.96
8/6/2022 9:45:00 AM 19.55 67.19 0.055 7.03 1.92 9.97
8/6/2022 10:00:00 AM 19.63 67.334 0.055 7.04 1.9 9.94
8/6/2022 10:15:00 AM 19.72 67.496 0.055 7.06 1.93 9.95
8/6/2022 10:30:00 AM 19.82 67.676 0.055 7.08 2.2 9.96
8/6/2022 10:45:00 AM 19.91 67.838 0.055 7.12 1.95 9.97
8/6/2022 11:00:00 AM 19.94 67.892 0.055 7.14 2.05 9.91
8/6/2022 11:15:00 AM 20.09 68.162 0.055 7.14 2.16 9.94
8/6/2022 11:30:00 AM 20.1 68.18 0.055 7.14 1.98 9.93
8/6/2022 11:45:00 AM 20.28 68.504 0.055 7.15 1.93 9.93
8/6/2022 12:00:00 PM 20.45 68.81 0.055 7.15 1.84 9.89
8/6/2022 12:15:00 PM 20.56 69.008 0.055 7.17 1.73 9.86
8/6/2022 12:30:00 PM 20.76 69.368 0.055 7.19 1.58 9.83
8/6/2022 12:45:00 PM 20.9 69.62 0.055 7.18 1.66 9.78
8/6/2022 1:00:00 PM 21.13 70.034 0.055 7.19 1.78 9.75
8/6/2022 1:15:00 PM 21.32 70.376 0.055 7.2 1.76 9.69
8/6/2022 1:30:00 PM 21.46 70.628 0.055 7.2 1.79 9.62
8/6/2022 1:45:00 PM 21.49 70.682 0.055 7.15 1.82 9.57
8/6/2022 2:00:00 PM 21.51 70.718 0.056 7.16 1.75 9.56
8/6/2022 2:15:00 PM 21.61 70.898 0.056 7.18 1.67 9.55
8/6/2022 2:30:00 PM 21.65 70.97 0.056 7.2 1.65 9.56
8/6/2022 2:45:00 PM 21.71 71.078 0.056 7.22 1.55 9.55
8/6/2022 3:00:00 PM 21.78 71.204 0.056 7.22 1.55 9.55
8/6/2022 3:15:00 PM 21.89 71.402 0.056 7.22 1.5 9.52
8/6/2022 3:30:00 PM 21.96 71.528 0.056 7.22 1.92 9.49
8/6/2022 3:45:00 PM 21.98 71.564 0.056 7.22 1.52 9.48
8/6/2022 4:00:00 PM 21.97 71.546 0.056 7.22 1.51 9.48
8/6/2022 4:15:00 PM 21.98 71.564 0.056 7.22 1.53 9.47
8/6/2022 4:30:00 PM 21.99 71.582 0.057 7.2 1.47 9.45
8/6/2022 4:45:00 PM 22 71.6 0.057 7.2 1.43 9.44
8/6/2022 5:00:00 PM 21.99 71.582 0.057 7.19 1.41 9.43
8/6/2022 5:15:00 PM 21.98 71.564 0.057 7.18 1.36 9.39
8/6/2022 5:30:00 PM 21.95 71.51 0.057 7.16 1.38 9.36
8/6/2022 5:45:00 PM 21.93 71.474 0.057 7.15 1.37 9.35
8/6/2022 6:00:00 PM 21.89 71.402 0.058 7.13 1.38 9.32
8/6/2022 6:15:00 PM 21.86 71.348 0.058 7.11 1.48 9.3
8/6/2022 6:30:00 PM 21.82 71.276 0.058 7.1 1.49 9.25
8/6/2022 6:45:00 PM 21.77 71.186 0.058 7.09 1.38 9.21
8/6/2022 7:00:00 PM 21.72 71.096 0.058 7.08 1.24 9.18
8/6/2022 7:15:00 PM 21.67 71.006 0.059 7.06 1.4 9.16
8/6/2022 7:30:00 PM 21.63 70.934 0.059 7.05 1.3 9.15
8/6/2022 7:45:00 PM 21.59 70.862 0.059 7.04 1.31 9.15
8/6/2022 8:00:00 PM 21.54 70.772 0.059 7.03 1.35 9.14
8/6/2022 8:15:00 PM 21.49 70.682 0.059 7.03 1.23 9.13
8/6/2022 8:30:00 PM 21.44 70.592 0.06 7.02 1.42 9.13
8/6/2022 8:45:00 PM 21.39 70.502 0.06 7.01 1.47 9.12
8/6/2022 9:00:00 PM 21.33 70.394 0.06 7 1.39 9.12
8/6/2022 9:15:00 PM 21.28 70.304 0.06 7 1.4 9.13
8/6/2022 9:30:00 PM 21.23 70.214 0.06 6.99 1.33 9.14
8/6/2022 9:45:00 PM 21.18 70.124 0.06 7 1.27 9.15
8/6/2022 10:00:00 PM 21.14 70.052 0.06 6.99 1.36 9.16
8/6/2022 10:15:00 PM 21.1 69.98 0.061 7 1.26 9.17
8/6/2022 10:30:00 PM 21.06 69.908 0.061 7 1.2 9.17
8/6/2022 10:45:00 PM 21.01 69.818 0.061 7 1.26 9.18
8/6/2022 11:00:00 PM 20.97 69.746 0.061 6.99 1.17 9.19
8/6/2022 11:15:00 PM 20.94 69.692 0.061 6.97 1.32 9.2
8/6/2022 11:30:00 PM 20.9 69.62 0.061 6.97 1.38 9.21
8/6/2022 11:45:00 PM 20.87 69.566 0.061 6.95 1.28 9.22
8/7/2022 12:00:00 AM 20.83 69.494 0.061 6.93 1.39 9.22
8/7/2022 12:15:00 AM 20.8 69.44 0.061 6.93 1.23 9.22
8/7/2022 12:30:00 AM 20.77 69.386 0.061 6.93 1.23 9.24
8/7/2022 12:45:00 AM 20.73 69.314 0.061 6.94 1.2 9.24
8/7/2022 1:00:00 AM 20.7 69.26 0.061 6.94 1.13 9.25
8/7/2022 1:15:00 AM 20.66 69.188 0.061 6.94 1.2 9.25
8/7/2022 1:30:00 AM 20.64 69.152 0.061 6.95 1.18 9.26
8/7/2022 1:45:00 AM 20.6 69.08 0.061 6.98 1.12 9.26
8/7/2022 2:00:00 AM 20.58 69.044 0.061 6.96 1.19 9.27
8/7/2022 2:15:00 AM 20.55 68.99 0.061 6.95 1.1 9.27
8/7/2022 2:30:00 AM 20.52 68.936 0.061 6.96 1.19 9.27
8/7/2022 2:45:00 AM 20.5 68.9 0.061 6.95 1.18 9.28
8/7/2022 3:00:00 AM 20.48 68.864 0.061 6.95 1.15 9.28
8/7/2022 3:15:00 AM 20.45 68.81 0.061 6.96 1.16 9.28
8/7/2022 3:30:00 AM 20.42 68.756 0.062 6.95 1.26 9.29
8/7/2022 3:45:00 AM 20.4 68.72 0.062 6.95 1.11 9.3
8/7/2022 4:00:00 AM 20.37 68.666 0.062 6.93 1.1 9.3
8/7/2022 4:15:00 AM 20.35 68.63 0.062 6.93 1.06 9.3
8/7/2022 4:30:00 AM 20.33 68.594 0.062 6.92 1.26 9.3
8/7/2022 4:45:00 AM 20.31 68.558 0.062 6.92 1.13 9.3
8/7/2022 5:00:00 AM 20.29 68.522 0.062 6.92 1.2 9.31
8/7/2022 5:15:00 AM 20.26 68.468 0.062 6.91 1.1 9.31
8/7/2022 5:30:00 AM 20.24 68.432 0.062 6.92 1.15 9.31
8/7/2022 5:45:00 AM 20.22 68.396 0.062 6.92 1.16 9.31
8/7/2022 6:00:00 AM 20.2 68.36 0.062 6.91 1.2 9.32
8/7/2022 6:15:00 AM 20.18 68.324 0.062 6.91 1.3 9.32
8/7/2022 6:30:00 AM 20.17 68.306 0.062 6.91 1.2 9.33
8/7/2022 6:45:00 AM 20.16 68.288 0.062 6.9 1.19 9.35
8/7/2022 7:00:00 AM 20.15 68.27 0.062 6.89 1.17 9.37
8/7/2022 7:15:00 AM 20.14 68.252 0.062 6.89 1.15 9.41
8/7/2022 7:30:00 AM 20.14 68.252 0.063 6.89 1.14 9.43
8/7/2022 7:45:00 AM 20.13 68.234 0.063 6.89 1.04 9.47
8/7/2022 8:00:00 AM 20.13 68.234 0.063 6.87 1.04 9.45
8/7/2022 8:15:00 AM 20.13 68.234 0.063 6.88 1.1 9.47
8/7/2022 8:30:00 AM 20.13 68.234 0.063 6.87 1.08 9.45
8/7/2022 8:45:00 AM 20.13 68.234 0.063 6.87 1.08 9.45
8/7/2022 9:00:00 AM 20.13 68.234 0.063 6.87 1.03 9.47
8/7/2022 9:15:00 AM 20.15 68.27 0.063 6.89 1.01 9.55
8/7/2022 9:30:00 AM 20.2 68.36 0.062 6.93 1.1 9.66
8/7/2022 9:45:00 AM 20.25 68.45 0.062 7 0.99 9.72
8/7/2022 10:00:00 AM 20.31 68.558 0.062 7.05 0.99 9.78
8/7/2022 10:15:00 AM 20.4 68.72 0.062 7.07 1.05 9.76
8/7/2022 10:30:00 AM 20.48 68.864 0.062 7.11 1.06 9.75
8/7/2022 10:45:00 AM 20.6 69.08 0.062 7.12 1.16 9.78
8/7/2022 11:00:00 AM 20.7 69.26 0.062 7.15 1.02 9.77
8/7/2022 11:15:00 AM 20.89 69.602 0.061 7.17 1.13 9.82
8/7/2022 11:30:00 AM 21.16 70.088 0.061 7.22 1.02 9.82
8/7/2022 11:45:00 AM 21.17 70.106 0.061 7.23 1.05 9.71
8/7/2022 12:00:00 PM 21.31 70.358 0.061 7.22 1.08 9.73
8/7/2022 12:15:00 PM 21.49 70.682 0.061 7.25 1.06 9.7
8/7/2022 12:30:00 PM 21.7 71.06 0.061 7.27 1.07 9.67
8/7/2022 12:45:00 PM 21.86 71.348 0.061 7.28 1.1 9.67
8/7/2022 1:00:00 PM 21.97 71.546 0.061 7.3 1.11 9.65
8/7/2022 1:15:00 PM 22.11 71.798 0.061 7.3 1.06 9.6
8/7/2022 1:30:00 PM 22.17 71.906 0.061 7.28 1.17 9.53
8/7/2022 1:45:00 PM 22.14 71.852 0.061 7.23 1.99 9.34
8/7/2022 2:00:00 PM 22.09 71.762 0.061 7.23 1.42 9.31
8/7/2022 2:15:00 PM 22.04 71.672 0.061 7.2 1.25 9.27
8/7/2022 2:30:00 PM 22.03 71.654 0.061 7.2 1.23 9.3
8/7/2022 2:45:00 PM 22.03 71.654 0.061 7.22 1.09 9.41
8/7/2022 3:00:00 PM 22.07 71.726 0.061 7.24 1.03 9.49
8/7/2022 3:15:00 PM 22.1 71.78 0.061 7.2 1.14 9.39
8/7/2022 3:30:00 PM 22.11 71.798 0.061 7.2 1.01 9.37
8/7/2022 3:45:00 PM 22.1 71.78 0.06 7.2 1.4 9.35
8/7/2022 4:00:00 PM 22.03 71.654 0.061 7.16 1.15 9.25
8/7/2022 4:15:00 PM 21.98 71.564 0.061 7.12 1.29 9.15
8/7/2022 4:30:00 PM 21.95 71.51 0.061 7.12 1.45 9.09
8/7/2022 4:45:00 PM 21.93 71.474 0.061 7.11 1.55 9.13
8/7/2022 5:00:00 PM 21.9 71.42 0.06 7.1 2.68 9.2
8/7/2022 5:15:00 PM 21.84 71.312 0.06 7.07 4.27 9.25
8/7/2022 5:30:00 PM 21.75 71.15 0.06 7.08 3.29 9.27
8/7/2022 5:45:00 PM 21.7 71.06 0.059 7.09 2.88 9.32
8/7/2022 6:00:00 PM 21.66 70.988 0.058 7.09 3.53 9.32
8/7/2022 6:15:00 PM 21.62 70.916 0.058 7.07 5.15 9.3
8/7/2022 6:30:00 PM 21.58 70.844 0.057 7.06 10.01 9.26
8/7/2022 6:45:00 PM 21.54 70.772 0.057 7.05 16.19 9.21
8/7/2022 7:00:00 PM 21.5 70.7 0.057 7.05 17.86 9.17
8/7/2022 7:15:00 PM 21.46 70.628 0.057 7.04 14.85 9.16
8/7/2022 7:30:00 PM 21.42 70.556 0.057 7.02 10.09 9.15
8/7/2022 7:45:00 PM 21.38 70.484 0.057 7.01 6.64 9.15
8/7/2022 8:00:00 PM 21.34 70.412 0.058 6.98 4.92 9.14
8/7/2022 8:15:00 PM 21.3 70.34 0.058 6.97 4.04 9.13
8/7/2022 8:30:00 PM 21.27 70.286 0.058 6.97 3.95 9.12
8/7/2022 8:45:00 PM 21.23 70.214 0.058 6.97 3.8 9.12
8/7/2022 9:00:00 PM 21.2 70.16 0.059 6.98 4.34 9.11
8/7/2022 9:15:00 PM 21.18 70.124 0.059 6.98 5 9.11
8/7/2022 9:30:00 PM 21.15 70.07 0.059 6.96 5.3 9.11
8/7/2022 9:45:00 PM 21.12 70.016 0.059 6.98 5.91 9.12
8/7/2022 10:00:00 PM 21.07 69.926 0.06 6.9 8.05 9.15
8/7/2022 10:15:00 PM 21.01 69.818 0.06 6.92 8.72 9.22
8/7/2022 10:30:00 PM 20.94 69.692 0.06 6.94 7.34 9.25
8/7/2022 10:45:00 PM 20.88 69.584 0.061 6.94 5.91 9.27
8/7/2022 11:00:00 PM 20.84 69.512 0.061 6.95 5.17 9.28
8/7/2022 11:15:00 PM 20.82 69.476 0.062 6.94 4.65 9.29
8/7/2022 11:30:00 PM 20.79 69.422 0.062 6.94 4.25 9.28
8/7/2022 11:45:00 PM 20.77 69.386 0.062 6.95 3.78 9.29
8/8/2022 12:00:00 AM 20.75 69.35 0.062 6.95 3.35 9.3
8/8/2022 12:15:00 AM 20.71 69.278 0.062 6.96 3 9.3
8/8/2022 12:30:00 AM 20.68 69.224 0.061 6.96 2.79 9.31
8/8/2022 12:45:00 AM 20.65 69.17 0.061 6.99 2.56 9.31
8/8/2022 1:00:00 AM 20.61 69.098 0.06 6.97 2.38 9.32
8/8/2022 1:15:00 AM 20.58 69.044 0.059 6.97 2.25 9.32
8/8/2022 1:30:00 AM 20.55 68.99 0.059 6.97 2.41 9.33
8/8/2022 1:45:00 AM 20.52 68.936 0.059 6.97 2.04 9.33
8/8/2022 2:00:00 AM 20.48 68.864 0.059 6.96 1.98 9.33
8/8/2022 2:15:00 AM 20.45 68.81 0.059 6.95 1.89 9.33
8/8/2022 2:30:00 AM 20.41 68.738 0.059 6.96 2.01 9.34
8/8/2022 2:45:00 AM 20.37 68.666 0.059 6.96 1.8 9.35
8/8/2022 3:00:00 AM 20.34 68.612 0.059 6.96 1.58 9.35
8/8/2022 3:15:00 AM 20.3 68.54 0.059 6.96 1.68 9.36
8/8/2022 3:30:00 AM 20.26 68.468 0.059 6.96 1.58 9.36
8/8/2022 3:45:00 AM 20.22 68.396 0.059 6.96 1.66 9.37
8/8/2022 4:00:00 AM 20.19 68.342 0.059 6.95 1.73 9.38
8/8/2022 4:15:00 AM 20.15 68.27 0.059 6.95 1.59 9.38
8/8/2022 4:30:00 AM 20.11 68.198 0.059 6.94 1.64 9.38
8/8/2022 4:45:00 AM 20.07 68.126 0.059 6.94 1.51 9.4
8/8/2022 5:00:00 AM 20.04 68.07201 0.059 6.95 1.63 9.4
8/8/2022 5:15:00 AM 19.99 67.982 0.059 6.95 1.57 9.41
8/8/2022 5:30:00 AM 19.96 67.92799 0.059 6.94 1.58 9.42
8/8/2022 5:45:00 AM 19.92 67.856 0.059 6.95 1.7 9.42
8/8/2022 6:00:00 AM 19.88 67.784 0.059 6.94 1.58 9.43
8/8/2022 6:15:00 AM 19.84 67.712 0.06 6.94 1.58 9.44
8/8/2022 6:30:00 AM 19.81 67.658 0.06 6.93 1.47 9.46
8/8/2022 6:45:00 AM 19.78 67.604 0.06 6.93 1.55 9.48
8/8/2022 7:00:00 AM 19.76 67.568 0.06 6.94 1.51 9.5
8/8/2022 7:15:00 AM 19.74 67.532 0.06 6.94 1.52 9.53
8/8/2022 7:30:00 AM 19.72 67.496 0.06 6.96 1.44 9.56
8/8/2022 7:45:00 AM 19.72 67.496 0.06 6.97 1.43 9.6
8/8/2022 8:00:00 AM 19.71 67.478 0.06 6.97 1.36 9.62
8/8/2022 8:15:00 AM 19.71 67.478 0.06 6.97 1.32 9.65
8/8/2022 8:30:00 AM 19.72 67.496 0.06 6.98 1.43 9.65
8/8/2022 8:45:00 AM 19.73 67.514 0.06 6.98 1.31 9.66
8/8/2022 9:00:00 AM 19.76 67.568 0.06 6.99 1.35 9.7
8/8/2022 9:15:00 AM 19.81 67.658 0.06 7 1.25 9.73
8/8/2022 9:30:00 AM 19.87 67.766 0.06 7.03 1.26 9.76
8/8/2022 9:45:00 AM 19.95 67.91 0.06 7.05 1.27 9.77
8/8/2022 10:00:00 AM 20.06 68.108 0.061 7.07 1.28 9.78
8/8/2022 10:15:00 AM 20.18 68.324 0.061 7.1 1.28 9.82
8/8/2022 10:30:00 AM 20.33 68.594 0.061 7.13 1.35 9.83
8/8/2022 10:45:00 AM 20.48 68.864 0.061 7.17 1.32 9.85
8/8/2022 11:00:00 AM 20.63 69.134 0.061 7.19 1.2 9.83
8/8/2022 11:15:00 AM 20.78 69.404 0.061 7.21 1.21 9.82
8/8/2022 11:30:00 AM 20.96 69.728 0.061 7.23 1.3 9.81
8/8/2022 11:45:00 AM 21.12 70.016 0.062 7.25 1.34 9.77
8/8/2022 12:00:00 PM 21.27 70.286 0.062 7.26 1.34 9.75
8/8/2022 12:15:00 PM 21.44 70.592 0.062 7.28 1.17 9.73
8/8/2022 12:30:00 PM 21.65 70.97 0.062 7.3 1.21 9.69
8/8/2022 12:45:00 PM 21.84 71.312 0.062 7.31 1.21 9.65
8/8/2022 1:00:00 PM 22.05 71.69 0.062 7.31 1.38 9.6
8/8/2022 1:15:00 PM 22.26 72.068 0.062 7.31 1.23 9.52
8/8/2022 1:30:00 PM 22.45 72.41 0.062 7.3 1.2 9.46
8/8/2022 1:45:00 PM 22.62 72.716 0.062 7.3 1.3 9.4
8/8/2022 2:00:00 PM 22.79 73.022 0.062 7.29 1.16 9.36
8/8/2022 2:15:00 PM 22.92 73.256 0.062 7.28 1.15 9.33
8/8/2022 2:30:00 PM 23.05 73.49 0.063 7.29 1.16 9.29
8/8/2022 2:45:00 PM 23.07 73.526 0.063 7.28 1.09 9.29
8/8/2022 3:00:00 PM 23.1 73.58 0.063 7.27 1.05 9.28
8/8/2022 3:15:00 PM 23.11 73.598 0.063 7.27 1.06 9.26
8/8/2022 3:30:00 PM 23.13 73.634 0.063 7.25 1.13 9.19
8/8/2022 3:45:00 PM 23.11 73.598 0.063 7.23 1.2 9.16
8/8/2022 4:00:00 PM 23.08 73.544 0.063 7.23 1.07 9.14
8/8/2022 4:15:00 PM 23.04 73.472 0.063 7.23 1.05 9.12
8/8/2022 4:30:00 PM 23 73.4 0.064 7.21 1.08 9.11
8/8/2022 4:45:00 PM 22.95 73.31 0.064 7.19 0.99 9.07
8/8/2022 5:00:00 PM 22.91 73.238 0.064 7.19 1.02 9.1
8/8/2022 5:15:00 PM 22.85 73.13 0.064 7.17 1.05 9.06
8/8/2022 5:30:00 PM 22.81 73.058 0.064 7.17 0.94 9.03
8/8/2022 5:45:00 PM 22.75 72.95 0.064 7.12 1.09 8.93
8/8/2022 6:00:00 PM 22.69 72.842 0.062 7.14 1.98 8.89
8/8/2022 6:15:00 PM 22.59 72.662 0.061 7.13 1.84 8.84
8/8/2022 6:30:00 PM 22.51 72.518 0.061 7.1 1.61 8.82
8/8/2022 6:45:00 PM 22.42 72.356 0.061 7.09 1.47 8.85
8/8/2022 7:00:00 PM 22.35 72.23 0.062 7.08 1.46 8.88
8/8/2022 7:15:00 PM 22.27 72.086 0.062 7.07 1.45 8.93
8/8/2022 7:30:00 PM 22.2 71.96 0.062 7.07 1.52 8.96
8/8/2022 7:45:00 PM 22.12 71.816 0.062 7.06 1.43 8.95
8/8/2022 8:00:00 PM 22.05 71.69 0.063 7.04 1.47 8.94
8/8/2022 8:15:00 PM 21.99 71.582 0.062 7.03 1.72 8.92
8/8/2022 8:30:00 PM 21.92 71.456 0.063 7.01 1.86 8.91
8/8/2022 8:45:00 PM 21.85 71.33 0.063 7.02 1.87 8.92
8/8/2022 9:00:00 PM 21.78 71.204 0.063 7 1.92 8.93
8/8/2022 9:15:00 PM 21.72 71.096 0.063 6.99 2.2 8.94
8/8/2022 9:30:00 PM 21.65 70.97 0.063 6.99 2.07 8.96
8/8/2022 9:45:00 PM 21.59 70.862 0.064 7 2.21 8.98
8/8/2022 10:00:00 PM 21.54 70.772 0.064 6.99 2.8 8.99
8/8/2022 10:15:00 PM 21.48 70.664 0.064 6.98 2.39 9.01
8/8/2022 10:30:00 PM 21.43 70.574 0.064 6.99 2.22 9.03
8/8/2022 10:45:00 PM 21.39 70.502 0.064 6.99 2.03 9.04
8/8/2022 11:00:00 PM 21.35 70.43 0.064 6.98 2.03 9.05
8/8/2022 11:15:00 PM 21.31 70.358 0.064 6.95 1.91 9.07
8/8/2022 11:30:00 PM 21.27 70.286 0.064 6.96 2.25 9.09
8/8/2022 11:45:00 PM 21.23 70.214 0.065 6.97 2.09 9.11
8/9/2022 12:00:00 AM 21.18 70.124 0.065 6.98 2.28 9.12
8/9/2022 12:15:00 AM 21.14 70.052 0.065 7 2.29 9.14
8/9/2022 12:30:00 AM 21.1 69.98 0.065 7 2.04 9.15
8/9/2022 12:45:00 AM 21.05 69.89 0.065 7 2.09 9.16
8/9/2022 1:00:00 AM 21.01 69.818 0.065 6.99 2.11 9.18
8/9/2022 1:15:00 AM 20.96 69.728 0.065 6.99 2.16 9.19
8/9/2022 1:30:00 AM 20.92 69.656 0.065 6.99 2.02 9.19
8/9/2022 1:45:00 AM 20.88 69.584 0.065 6.99 1.91 9.2
8/9/2022 2:00:00 AM 20.84 69.512 0.066 7 1.86 9.2
8/9/2022 2:15:00 AM 20.81 69.458 0.066 6.99 1.93 9.21
8/9/2022 2:30:00 AM 20.78 69.404 0.066 6.99 1.68 9.21
8/9/2022 2:45:00 AM 20.74 69.332 0.066 6.98 1.65 9.22
8/9/2022 3:00:00 AM 20.71 69.278 0.066 6.98 1.76 9.23
8/9/2022 3:15:00 AM 20.68 69.224 0.065 6.98 1.6 9.23
8/9/2022 3:30:00 AM 20.65 69.17 0.065 6.98 1.76 9.24
8/9/2022 3:45:00 AM 20.62 69.116 0.065 6.98 1.71 9.25
8/9/2022 4:00:00 AM 20.59 69.062 0.064 6.98 1.62 9.26
8/9/2022 4:15:00 AM 20.55 68.99 0.064 6.98 1.59 9.27
8/9/2022 4:30:00 AM 20.52 68.936 0.064 6.98 1.55 9.27
8/9/2022 4:45:00 AM 20.5 68.9 0.064 6.98 1.48 9.28
8/9/2022 5:00:00 AM 20.47 68.846 0.064 6.89 1.48 9.28
8/9/2022 5:15:00 AM 20.45 68.81 0.064 6.94 1.41 9.28
8/9/2022 5:30:00 AM 20.43 68.774 0.064 6.94 1.54 9.28
8/9/2022 5:45:00 AM 20.41 68.738 0.064 6.94 1.58 9.28
8/9/2022 6:00:00 AM 20.39 68.702 0.064 6.92 1.53 9.28
8/9/2022 6:15:00 AM 20.37 68.666 0.064 6.91 1.56 9.29
8/9/2022 6:30:00 AM 20.36 68.648 0.064 6.91 1.52 9.3
8/9/2022 6:45:00 AM 20.34 68.612 0.064 6.92 1.5 9.32
8/9/2022 7:00:00 AM 20.33 68.594 0.064 6.91 1.34 9.35
8/9/2022 7:15:00 AM 20.32 68.576 0.064 6.94 1.44 9.39
8/9/2022 7:30:00 AM 20.32 68.576 0.065 6.95 1.39 9.43
8/9/2022 7:45:00 AM 20.31 68.558 0.065 6.96 1.43 9.42
8/9/2022 8:00:00 AM 20.32 68.576 0.066 6.97 1.35 9.49
8/9/2022 8:15:00 AM 20.33 68.594 0.066 6.97 1.26 9.54
8/9/2022 8:30:00 AM 20.34 68.612 0.066 6.96 1.21 9.52
8/9/2022 8:45:00 AM 20.35 68.63 0.066 6.96 1.28 9.51
8/9/2022 9:00:00 AM 20.37 68.666 0.067 6.97 1.2 9.52
8/9/2022 9:15:00 AM 20.41 68.738 0.067 7 1.2 9.55
8/9/2022 9:30:00 AM 20.47 68.846 0.067 7.04 1.09 9.63
8/9/2022 9:45:00 AM 20.54 68.972 0.067 7.07 1.25 9.65
8/9/2022 10:00:00 AM 20.57 69.026 0.067 7.07 1.19 9.58
8/9/2022 10:15:00 AM 20.58 69.044 0.067 7.06 1.18 9.54
8/9/2022 10:30:00 AM 20.61 69.098 0.067 7.07 1.2 9.62
8/9/2022 10:45:00 AM 20.67 69.206 0.067 7.12 1.25 9.72
8/9/2022 11:00:00 AM 20.77 69.386 0.067 7.16 1.19 9.76
8/9/2022 11:15:00 AM 20.89 69.602 0.067 7.19 1.12 9.8
8/9/2022 11:30:00 AM 20.97 69.746 0.066 7.22 1.23 9.79
8/9/2022 11:45:00 AM 21.03 69.854 0.066 7.24 1.19 9.78
8/9/2022 12:00:00 PM 21.27 70.286 0.066 7.26 1.21 9.79
8/9/2022 12:15:00 PM 21.35 70.43 0.066 7.29 1.17 9.76
8/9/2022 12:30:00 PM 21.48 70.664 0.066 7.31 1.21 9.73
8/9/2022 12:45:00 PM 21.69 71.042 0.066 7.33 1.15 9.72
8/9/2022 1:00:00 PM 21.77 71.186 0.067 7.33 1.16 9.67
8/9/2022 1:15:00 PM 21.91 71.438 0.067 7.33 1.15 9.67
8/9/2022 1:30:00 PM 22.08 71.744 0.067 7.36 1.08 9.62
8/9/2022 1:45:00 PM 22.26 72.068 0.067 7.36 1.11 9.57
8/9/2022 2:00:00 PM 22.23 72.014 0.067 7.31 1.21 9.39
8/9/2022 2:15:00 PM 22.21 71.978 0.067 7.27 1.13 9.39
8/9/2022 2:30:00 PM 22.26 72.068 0.067 7.3 1.09 9.46
8/9/2022 2:45:00 PM 22.38 72.284 0.067 7.32 1.08 9.48
8/9/2022 3:00:00 PM 22.41 72.338 0.068 7.3 1.11 9.4
8/9/2022 3:15:00 PM 22.53 72.554 0.068 7.29 1.06 9.33
8/9/2022 3:30:00 PM 22.61 72.698 0.068 7.27 1.12 9.32
8/9/2022 3:45:00 PM 22.65 72.77 0.068 7.28 0.99 9.36
8/9/2022 4:00:00 PM 22.65 72.77 0.068 7.28 1.1 9.34
8/9/2022 4:15:00 PM 22.64 72.752 0.069 7.27 1.08 9.32
8/9/2022 4:30:00 PM 22.65 72.77 0.069 7.26 1.08 9.32
8/9/2022 4:45:00 PM 22.66 72.788 0.069 7.25 0.94 9.29
8/9/2022 5:00:00 PM 22.66 72.788 0.069 7.23 1.08 9.29
8/9/2022 5:15:00 PM 22.64 72.752 0.069 7.21 1.04 9.22
8/9/2022 5:30:00 PM 22.61 72.698 0.07 7.19 1 9.22
8/9/2022 5:45:00 PM 22.56 72.608 0.07 7.17 0.97 9.15
8/9/2022 6:00:00 PM 22.53 72.554 0.07 7.15 0.94 9.12
8/9/2022 6:15:00 PM 22.49 72.482 0.07 7.13 0.96 9.06
8/9/2022 6:30:00 PM 22.44 72.392 0.071 7.11 0.99 9
8/9/2022 6:45:00 PM 22.4 72.32 0.071 7.09 0.94 8.98
8/9/2022 7:00:00 PM 22.36 72.248 0.071 7.09 1 8.99
8/9/2022 7:15:00 PM 22.32 72.176 0.071 7.08 0.95 8.98
8/9/2022 7:30:00 PM 22.28 72.104 0.071 7.06 0.97 8.98
8/9/2022 7:45:00 PM 22.23 72.014 0.071 7.07 0.97 8.98
8/9/2022 8:00:00 PM 22.18 71.924 0.072 7.05 0.98 8.96
8/9/2022 8:15:00 PM 22.13 71.834 0.072 7.05 0.96 8.95
8/9/2022 8:30:00 PM 22.08 71.744 0.072 7.04 1.07 8.93
8/9/2022 8:45:00 PM 22.02 71.636 0.072 7.03 1.29 8.92
8/9/2022 9:00:00 PM 21.97 71.546 0.072 7.02 1.13 8.91
8/9/2022 9:15:00 PM 21.91 71.438 0.072 7.02 1.09 8.92
8/9/2022 9:30:00 PM 21.86 71.348 0.072 7.01 1.04 8.93
8/9/2022 9:45:00 PM 21.8 71.24 0.072 7.01 1.08 8.94
8/9/2022 10:00:00 PM 21.75 71.15 0.072 7.01 1.03 8.95
8/9/2022 10:15:00 PM 21.7 71.06 0.072 7 1.05 8.96
8/9/2022 10:30:00 PM 21.64 70.952 0.072 7.02 1.02 8.98
8/9/2022 10:45:00 PM 21.59 70.862 0.072 7.02 1 8.98
8/9/2022 11:00:00 PM 21.53 70.754 0.072 7.02 0.98 9
8/9/2022 11:15:00 PM 21.47 70.646 0.072 7.03 1 9
8/9/2022 11:30:00 PM 21.42 70.556 0.072 7.02 1.03 9.02
8/9/2022 11:45:00 PM 21.37 70.466 0.072 7.02 1 9.03
8/10/2022 12:00:00 AM 21.32 70.376 0.072 7.04 1.02 9.04
8/10/2022 12:15:00 AM 21.26 70.268 0.072 7.04 1.02 9.06
8/10/2022 12:30:00 AM 21.2 70.16 0.072 7.05 1.01 9.07
8/10/2022 12:45:00 AM 21.15 70.07 0.072 7.05 0.97 9.08
8/10/2022 1:00:00 AM 21.08 69.944 0.072 7.06 1.01 9.09
8/10/2022 1:15:00 AM 21.01 69.818 0.072 7.07 1.06 9.11
8/10/2022 1:30:00 AM 20.95 69.71 0.072 7.07 1 9.12
8/10/2022 1:45:00 AM 20.89 69.602 0.072 7.07 1.01 9.13
8/10/2022 2:00:00 AM 20.84 69.512 0.072 7.07 0.99 9.14
8/10/2022 2:15:00 AM 20.78 69.404 0.072 7.07 0.96 9.15
8/10/2022 2:30:00 AM 20.71 69.278 0.072 7.07 1.08 9.17
8/10/2022 2:45:00 AM 20.65 69.17 0.072 7.07 0.97 9.18
8/10/2022 3:00:00 AM 20.6 69.08 0.072 7.07 0.98 9.19
8/10/2022 3:15:00 AM 20.54 68.972 0.072 7.06 1.05 9.2
8/10/2022 3:30:00 AM 20.49 68.882 0.072 7.05 1.05 9.21
8/10/2022 3:45:00 AM 20.44 68.792 0.072 7.04 0.93 9.22
8/10/2022 4:00:00 AM 20.38 68.684 0.072 7.02 0.94 9.23
8/10/2022 4:15:00 AM 20.33 68.594 0.072 7.01 1.02 9.24
8/10/2022 4:30:00 AM 20.28 68.504 0.072 7.02 1 9.25
8/10/2022 4:45:00 AM 20.23 68.414 0.072 7.02 0.94 9.26
8/10/2022 5:00:00 AM 20.19 68.342 0.072 7.02 0.99 9.27
8/10/2022 5:15:00 AM 20.15 68.27 0.072 7.02 1.08 9.28
8/10/2022 5:30:00 AM 20.11 68.198 0.072 7.03 1.01 9.29
8/10/2022 5:45:00 AM 20.07 68.126 0.072 7.02 1.09 9.29
8/10/2022 6:00:00 AM 20.03 68.054 0.072 7.02 1.06 9.3
8/10/2022 6:15:00 AM 20 68 0.072 7.03 1.11 9.31
8/10/2022 6:30:00 AM 19.97 67.946 0.072 7.04 1.08 9.32
8/10/2022 6:45:00 AM 19.94 67.892 0.072 7.05 1.03 9.34
8/10/2022 7:00:00 AM 19.91 67.838 0.072 7.06 0.99 9.37
8/10/2022 7:15:00 AM 19.89 67.802 0.072 7.07 1.01 9.4
8/10/2022 7:30:00 AM 19.86 67.748 0.072 7.08 1.07 9.42
8/10/2022 7:45:00 AM 19.85 67.73 0.072 7.09 0.94 9.46
8/10/2022 8:00:00 AM 19.84 67.712 0.072 7.1 0.94 9.51
8/10/2022 8:15:00 AM 19.85 67.73 0.072 7.12 0.95 9.58
8/10/2022 8:30:00 AM 19.85 67.73 0.071 7.12 0.9 9.62
8/10/2022 8:45:00 AM 19.85 67.73 0.071 7.14 1.02 9.63
8/10/2022 9:00:00 AM 19.87 67.766 0.071 7.15 0.99 9.7
8/10/2022 9:15:00 AM 19.87 67.766 0.071 7.17 0.92 9.72
8/10/2022 9:30:00 AM 19.89 67.802 0.071 7.19 0.91 9.78
8/10/2022 9:45:00 AM 19.92 67.856 0.071 7.2 1 9.81
8/10/2022 10:00:00 AM 19.96 67.92799 0.07 7.23 0.92 9.86
8/10/2022 10:15:00 AM 20 68 0.07 7.25 0.96 9.92
8/10/2022 10:30:00 AM 20.02 68.036 0.07 7.27 1.02 9.9
8/10/2022 10:45:00 AM 20.06 68.108 0.07 7.27 0.95 9.87
8/10/2022 11:00:00 AM 20.08 68.144 0.07 7.26 0.93 9.83
8/10/2022 11:15:00 AM 20.14 68.252 0.07 7.27 0.98 9.9
8/10/2022 11:30:00 AM 20.27 68.486 0.07 7.3 0.97 9.93
8/10/2022 11:45:00 AM 20.3 68.54 0.07 7.31 0.99 9.9
8/10/2022 12:00:00 PM 20.57 69.026 0.07 7.32 0.99 9.88
8/10/2022 12:15:00 PM 20.57 69.026 0.07 7.32 0.97 9.88
8/10/2022 12:30:00 PM 20.56 69.008 0.07 7.33 0.86 9.86
8/10/2022 12:45:00 PM 20.66 69.188 0.07 7.34 1.11 9.78
8/10/2022 1:00:00 PM 20.83 69.494 0.069 7.33 0.91 9.78
8/10/2022 1:15:00 PM 21.03 69.854 0.069 7.35 0.96 9.79
8/10/2022 1:30:00 PM 21.18 70.124 0.069 7.35 0.93 9.71
8/10/2022 1:45:00 PM 21.37 70.466 0.069 7.35 0.99 9.7
8/10/2022 2:00:00 PM 21.56 70.808 0.069 7.37 0.97 9.68
8/10/2022 2:15:00 PM 21.7 71.06 0.07 7.35 0.92 9.55
8/10/2022 2:30:00 PM 21.73 71.114 0.07 7.34 0.93 9.52
8/10/2022 2:45:00 PM 21.86 71.348 0.07 7.32 0.97 9.46
8/10/2022 3:00:00 PM 21.97 71.546 0.07 7.33 0.91 9.46
8/10/2022 3:15:00 PM 22.05 71.69 0.07 7.32 0.88 9.46
8/10/2022 3:30:00 PM 22.1 71.78 0.07 7.31 0.97 9.4
8/10/2022 3:45:00 PM 22.12 71.816 0.07 7.31 0.9 9.38
8/10/2022 4:00:00 PM 22.08 71.744 0.07 7.27 0.89 9.35
8/10/2022 4:15:00 PM 22.02 71.636 0.07 7.26 0.93 9.31
8/10/2022 4:30:00 PM 21.94 71.492 0.07 7.24 0.9 9.24
8/10/2022 4:45:00 PM 21.89 71.402 0.07 7.23 0.88 9.21
8/10/2022 5:00:00 PM 21.84 71.312 0.07 7.23 0.87 9.19
8/10/2022 5:15:00 PM 21.82 71.276 0.071 7.21 0.87 9.16
8/10/2022 5:30:00 PM 21.79 71.222 0.071 7.2 0.86 9.15
8/10/2022 5:45:00 PM 21.75 71.15 0.071 7.19 0.9 9.14
8/10/2022 6:00:00 PM 21.69 71.042 0.071 7.18 0.83 9.13
8/10/2022 6:15:00 PM 21.63 70.934 0.071 7.18 0.92 9.11
8/10/2022 6:30:00 PM 21.56 70.808 0.071 7.18 0.88 9.1
8/10/2022 6:45:00 PM 21.5 70.7 0.071 7.17 0.93 9.09
8/10/2022 7:00:00 PM 21.44 70.592 0.071 7.18 0.85 9.09
8/10/2022 7:15:00 PM 21.38 70.484 0.071 7.18 0.89 9.08
8/10/2022 7:30:00 PM 21.31 70.358 0.071 7.17 0.91 9.08
8/10/2022 7:45:00 PM 21.25 70.25 0.071 7.18 0.89 9.07
8/10/2022 8:00:00 PM 21.17 70.106 0.071 7.19 0.93 9.06
8/10/2022 8:15:00 PM 21.08 69.944 0.072 7.18 0.95 9.06
8/10/2022 8:30:00 PM 21 69.8 0.072 7.19 1.06 9.06
8/10/2022 8:45:00 PM 20.92 69.656 0.072 7.21 1.07 9.07
8/10/2022 9:00:00 PM 20.84 69.512 0.072 7.2 1.03 9.08
8/10/2022 9:15:00 PM 20.76 69.368 0.072 7.21 1.02 9.1
8/10/2022 9:30:00 PM 20.68 69.224 0.072 7.22 1 9.11
8/10/2022 9:45:00 PM 20.6 69.08 0.072 7.24 0.91 9.13
8/10/2022 10:00:00 PM 20.52 68.936 0.072 7.23 0.99 9.15
8/10/2022 10:15:00 PM 20.45 68.81 0.072 7.17 0.92 9.16
8/10/2022 10:30:00 PM 20.38 68.684 0.072 7.13 0.9 9.18
8/10/2022 10:45:00 PM 20.31 68.558 0.072 7.1 0.94 9.19
8/10/2022 11:00:00 PM 20.24 68.432 0.072 7.12 0.87 9.2
8/10/2022 11:15:00 PM 20.16 68.288 0.072 7.14 0.98 9.22
8/10/2022 11:30:00 PM 20.09 68.162 0.072 7.16 0.97 9.23
8/10/2022 11:45:00 PM 20.02 68.036 0.071 7.17 0.9 9.25
8/11/2022 12:00:00 AM 19.96 67.92799 0.071 7.17 0.81 9.26
8/11/2022 12:15:00 AM 19.89 67.802 0.071 7.17 0.92 9.28
8/11/2022 12:30:00 AM 19.83 67.694 0.071 7.17 0.89 9.29
8/11/2022 12:45:00 AM 19.77 67.586 0.071 7.14 0.83 9.3
8/11/2022 1:00:00 AM 19.71 67.478 0.071 7.12 0.89 9.31
8/11/2022 1:15:00 AM 19.65 67.37 0.071 7.12 0.9 9.32
8/11/2022 1:30:00 AM 19.59 67.262 0.071 6.94 0.86 9.34
8/11/2022 1:45:00 AM 19.54 67.172 0.071 7.13 1.81 9.35
8/11/2022 2:00:00 AM 19.49 67.082 0.071 7.12 0.89 9.36
8/11/2022 2:15:00 AM 19.43 66.974 0.071 7.11 0.95 9.37
8/11/2022 2:30:00 AM 19.39 66.902 0.071 7.12 0.91 9.37
8/11/2022 2:45:00 AM 19.34 66.812 0.071 6.98 1.03 9.39
8/11/2022 3:00:00 AM 19.29 66.722 0.071 7.09 0.92 9.4
8/11/2022 3:15:00 AM 19.23 66.614 0.071 7.09 0.94 9.41
8/11/2022 3:30:00 AM 19.18 66.524 0.071 7.09 1.06 9.42
8/11/2022 3:45:00 AM 19.12 66.416 0.071 7.14 1.03 9.43
8/11/2022 4:00:00 AM 19.06 66.308 0.071 7.13 0.9 9.45
8/11/2022 4:15:00 AM 19 66.2 0.071 7.14 0.91 9.46
8/11/2022 4:30:00 AM 18.95 66.11 0.071 7.21 0.98 9.47
8/11/2022 4:45:00 AM 18.89 66.002 0.071 7.06 0.89 9.48
8/11/2022 5:00:00 AM 18.84 65.912 0.071 7.21 0.85 9.5
8/11/2022 5:15:00 AM 18.78 65.804 0.071 7.12 0.94 9.51
8/11/2022 5:30:00 AM 18.72 65.696 0.071 7.19 0.98 9.52
8/11/2022 5:45:00 AM 18.66 65.588 0.071 7.23 1.06 9.53
8/11/2022 6:00:00 AM 18.61 65.498 0.071 7.17 0.92 9.55
8/11/2022 6:15:00 AM 18.55 65.39 0.071 7.12 0.91 9.56
8/11/2022 6:30:00 AM 18.5 65.3 0.071 7.17 0.9 9.59
8/11/2022 6:45:00 AM 18.46 65.228 0.071 7.21 0.9 9.61
8/11/2022 7:00:00 AM 18.41 65.138 0.071 7.26 1.12 9.64
8/11/2022 7:15:00 AM 18.37 65.066 0.071 7.27 0.96 9.67
8/11/2022 7:30:00 AM 18.34 65.012 0.071 7.27 0.93 9.7
8/11/2022 7:45:00 AM 18.31 64.958 0.071 7.28 0.95 9.71
8/11/2022 8:00:00 AM 18.29 64.922 0.071 7.27 0.92 9.74
8/11/2022 8:15:00 AM 18.28 64.904 0.071 7.28 0.95 9.76
8/11/2022 8:30:00 AM 18.29 64.922 0.071 7.32 1.03 9.8
8/11/2022 8:45:00 AM 18.32 64.976 0.071 7.29 1.03 9.82
8/11/2022 9:00:00 AM 18.36 65.048 0.07 7.32 0.94 9.83
8/11/2022 9:15:00 AM 18.4 65.12 0.07 7.33 0.91 9.85
8/11/2022 9:30:00 AM 18.47 65.246 0.07 7.34 0.93 9.87
8/11/2022 9:45:00 AM 18.55 65.39 0.07 7.34 0.9 9.88
8/11/2022 10:00:00 AM 18.66 65.588 0.07 7.34 0.92 9.9
8/11/2022 10:15:00 AM 18.77 65.786 0.07 7.25 0.98 9.91
8/11/2022 10:30:00 AM 18.91 66.038 0.07 7.35 0.93 9.92
8/11/2022 10:45:00 AM 19.09 66.362 0.07 7.26 0.94 9.93
8/11/2022 11:00:00 AM 19.3 66.74 0.07 7.26 0.94 9.93
8/11/2022 11:15:00 AM 19.53 67.154 0.069 7.35 0.93 9.93
8/11/2022 11:30:00 AM 19.73 67.514 0.069 7.36 0.97 9.92
8/11/2022 11:45:00 AM 19.88 67.784 0.069 7.37 0.84 9.92
8/11/2022 12:00:00 PM 19.96 67.92799 0.069 7.36 0.86 9.9
8/11/2022 12:15:00 PM 20.13 68.234 0.069 7.37 0.95 9.89
8/11/2022 12:30:00 PM 20.25 68.45 0.069 7.36 0.84 9.87
8/11/2022 12:45:00 PM 20.37 68.666 0.069 7.32 0.94 9.82
8/11/2022 1:00:00 PM 20.54 68.972 0.069 7.33 1.04 9.77
8/11/2022 1:15:00 PM 20.75 69.35 0.069 7.37 0.88 9.71
8/11/2022 1:30:00 PM 20.98 69.764 0.069 6.93 0.93 9.66
8/11/2022 1:45:00 PM 21.24 70.232 0.069 7.34 0.93 9.58
8/11/2022 2:00:00 PM 21.38 70.484 0.069 7.34 0.83 9.56
8/11/2022 2:15:00 PM 21.55 70.79 0.069 7.34 0.87 9.53
8/11/2022 2:30:00 PM 21.61 70.898 0.069 7.35 0.86 9.52
8/11/2022 2:45:00 PM 21.59 70.862 0.069 7.35 5.94 9.5
8/11/2022 3:00:00 PM 21.59 70.862 0.069 7.35 0.92 9.5
8/11/2022 3:15:00 PM 21.7 71.06 0.069 7.32 0.86 9.42
8/11/2022 3:30:00 PM 21.7 71.06 0.069 7.32 0.89 9.43
8/11/2022 3:45:00 PM 21.75 71.15 0.069 7.32 0.92 9.45
8/11/2022 4:00:00 PM 21.74 71.132 0.069 7.33 1.01 9.36
8/11/2022 4:15:00 PM 21.68 71.024 0.069 7.35 1.02 9.29
8/11/2022 4:30:00 PM 21.65 70.97 0.069 7.32 1.57 9.25
8/11/2022 4:45:00 PM 21.62 70.916 0.07 7.34 1.24 9.21
8/11/2022 5:00:00 PM 21.58 70.844 0.07 7.33 1.99 9.19
8/11/2022 5:15:00 PM 21.55 70.79 0.07 7.32 1.82 9.17
8/11/2022 5:30:00 PM 21.51 70.718 0.07 7.34 2.11 9.16
8/11/2022 5:45:00 PM 21.47 70.646 0.07 7.33 2.65 9.14
8/11/2022 6:00:00 PM 21.43 70.574 0.07 7.31 3.41 9.13
8/11/2022 6:15:00 PM 21.36 70.448 0.071 7.32 4.01 9.11
8/11/2022 6:30:00 PM 21.29 70.32201 0.071 7.32 4.75 9.11
8/11/2022 6:45:00 PM 21.2 70.16 0.071 7.31 4.44 9.09
8/11/2022 7:00:00 PM 21.12 70.016 0.071 7.31 5.34 9.1
8/11/2022 7:15:00 PM 21.04 69.872 0.071 7.31 4.68 9.1
8/11/2022 7:30:00 PM 20.95 69.71 0.071 7.3 4.99 9.1
8/11/2022 7:45:00 PM 20.86 69.548 0.071 7.3 4.19 9.11
8/11/2022 8:00:00 PM 20.76 69.368 0.071 7.21 3.54 9.11
8/11/2022 8:15:00 PM 20.66 69.188 0.071 7.3 3.43 9.1
8/11/2022 8:30:00 PM 20.57 69.026 0.071 7.3 2.85 9.12
8/11/2022 8:45:00 PM 20.48 68.864 0.071 7.3 2.66 9.12
8/11/2022 9:00:00 PM 20.38 68.684 0.071 7.28 2.7 9.14
8/11/2022 9:15:00 PM 20.29 68.522 0.072 7.31 2.48 9.16
8/11/2022 9:30:00 PM 20.2 68.36 0.072 7.27 2.16 9.18
8/11/2022 9:45:00 PM 20.12 68.216 0.072 7.29 2.15 9.2
8/11/2022 10:00:00 PM 20.03 68.054 0.072 7.23 2.3 9.22
8/11/2022 10:15:00 PM 19.95 67.91 0.072 7.28 3.41 9.24
8/11/2022 10:30:00 PM 19.88 67.784 0.072 7.27 2.13 9.26
8/11/2022 10:45:00 PM 19.8 67.64 0.072 7.33 2.07 9.27
8/11/2022 11:00:00 PM 19.73 67.514 0.072 7.29 2.12 9.28
8/11/2022 11:15:00 PM 19.66 67.388 0.072 7.28 2.02 9.3
8/11/2022 11:30:00 PM 19.6 67.28 0.071 7.26 2.08 9.32
8/11/2022 11:45:00 PM 19.53 67.154 0.071 7.28 2.7 9.33
8/12/2022 12:00:00 AM 19.47 67.046 0.071 7.25 2 9.34
8/12/2022 12:15:00 AM 19.4 66.92 0.071 7.29 2.05 9.37
8/12/2022 12:30:00 AM 19.34 66.812 0.071 7.26 2.12 9.38
8/12/2022 12:45:00 AM 19.28 66.704 0.071 7.28 2.05 9.4
8/12/2022 1:00:00 AM 19.23 66.614 0.071 7.27 1.81 9.41
8/12/2022 1:15:00 AM 19.16 66.488 0.071 7.23 1.79 9.42
8/12/2022 1:30:00 AM 19.08 66.344 0.071 7.12 1.88 9.44
8/12/2022 1:45:00 AM 19 66.2 0.071 7.14 2.02 9.46
8/12/2022 2:00:00 AM 18.9 66.02 0.071 6.97 1.87 9.48
8/12/2022 2:15:00 AM 18.82 65.876 0.071 7.12 2.07 9.5
8/12/2022 2:30:00 AM 18.73 65.714 0.071 7.11 2.02 9.51
8/12/2022 2:45:00 AM 18.65 65.57 0.071 7.08 2.08 9.53
8/12/2022 3:00:00 AM 18.57 65.426 0.071 7.16 2.08 9.56
8/12/2022 3:15:00 AM 18.49 65.282 0.071 7.15 2.13 9.57
8/12/2022 3:30:00 AM 18.41 65.138 0.071 7.06 2.18 9.6
8/12/2022 3:45:00 AM 18.32 64.976 0.071 7.06 2.06 9.62
8/12/2022 4:00:00 AM 18.25 64.85 0.071 7.12 2.27 9.64
8/12/2022 4:15:00 AM 18.18 64.724 0.071 7.09 2.21 9.64
8/12/2022 4:30:00 AM 18.11 64.598 0.071 7.18 2.14 9.68
8/12/2022 4:45:00 AM 18.04 64.472 0.071 7.13 2.11 9.69
8/12/2022 5:00:00 AM 17.96 64.328 0.071 7.11 2.12 9.7
8/12/2022 5:15:00 AM 17.91 64.238 0.071 7.04 2.12 9.72
8/12/2022 5:30:00 AM 17.85 64.13 0.071 7.1 2.21 9.73
8/12/2022 5:45:00 AM 17.79 64.022 0.071 7.2 2.07 9.74
8/12/2022 6:00:00 AM 17.74 63.932 0.071 7.21 2.17 9.76
8/12/2022 6:15:00 AM 17.69 63.842 0.071 7.21 2.21 9.77
8/12/2022 6:30:00 AM 17.63 63.734 0.071 7.07 2.27 9.79
8/12/2022 6:45:00 AM 17.58 63.644 0.071 7.19 2.14 9.82
8/12/2022 7:00:00 AM 17.53 63.554 0.071 7.21 2.14 9.85
8/12/2022 7:15:00 AM 17.48 63.464 0.071 7.17 2.2 9.87
8/12/2022 7:30:00 AM 17.46 63.428 0.071 7.15 2.23 9.91
8/12/2022 7:45:00 AM 17.44 63.392 0.071 7.17 2.24 9.92
8/12/2022 8:00:00 AM 17.43 63.374 0.071 7.2 2.09 9.94
8/12/2022 8:15:00 AM 17.44 63.392 0.071 7.21 2.02 9.97
8/12/2022 8:30:00 AM 17.46 63.428 0.071 7.18 2.16 9.99
8/12/2022 8:45:00 AM 17.5 63.5 0.07 7.08 2.15 10.02
8/12/2022 9:00:00 AM 17.55 63.59 0.07 7.23 1.97 10.04
8/12/2022 9:15:00 AM 17.59 63.662 0.07 7.21 2.2 10.06
8/12/2022 9:30:00 AM 17.66 63.788 0.07 7.22 3 10.07
8/12/2022 9:45:00 AM 17.75 63.95 0.07 7.23 2.7 10.08
8/12/2022 10:00:00 AM 17.84 64.112 0.07 7 3.03 10.1
8/12/2022 10:15:00 AM 17.93 64.274 0.07 7.16 2.73 10.1
8/12/2022 10:30:00 AM 18.02 64.436 0.07 7.24 2.41 10.12
8/12/2022 10:45:00 AM 18.16 64.688 0.07 7.23 2.56 10.14
8/12/2022 11:00:00 AM 18.33 64.994 0.069 7.04 2.88 10.14
8/12/2022 11:15:00 AM 18.55 65.39 0.069 6.9 3.82 10.14
8/12/2022 11:30:00 AM 18.73 65.714 0.069 7.19 3.09 10.12
8/12/2022 11:45:00 AM 18.91 66.038 0.069 6.85 2.84 10.09
8/12/2022 12:00:00 PM 19.05 66.29 0.069 7.05 4.16 10.06
8/12/2022 12:15:00 PM 19.14 66.452 0.069 7.12 4.35 10.05
8/12/2022 12:30:00 PM 19.23 66.614 0.069 7.13 4.18 10.02
8/12/2022 12:45:00 PM 19.33 66.794 0.069 7.15 3.97 9.98
8/12/2022 1:00:00 PM 19.45 67.01 0.069 7.08 2.89 9.93
8/12/2022 1:15:00 PM 19.63 67.334 0.069 7.09 2.05 9.87
8/12/2022 1:30:00 PM 19.85 67.73 0.069 6.9 2.46 9.81
8/12/2022 1:45:00 PM 20.08 68.144 0.069 7.02 2.82 9.74
8/12/2022 2:00:00 PM 20.29 68.522 0.069 7 2.87 9.69
8/12/2022 2:15:00 PM 20.49 68.882 0.069 7 2.78 9.61
8/12/2022 2:30:00 PM 20.64 69.152 0.069 6.92 3.14 9.55
8/12/2022 2:45:00 PM 20.7 69.26 0.069 7 4.45 9.51
8/12/2022 3:00:00 PM 20.69 69.242 0.069 6.63 4.26 9.5
8/12/2022 3:15:00 PM 20.72 69.296 0.069 6.98 3.66 9.49
8/12/2022 3:30:00 PM 20.69 69.242 0.07 6.87 4.54 9.47
8/12/2022 3:45:00 PM 20.66 69.188 0.07 7.04 4.71 9.46
8/12/2022 4:00:00 PM 20.6 69.08 0.07 6.94 4.18 9.45
8/12/2022 4:15:00 PM 20.48 68.864 0.07 7 3.39 9.45
8/12/2022 4:30:00 PM 20.35 68.63 0.07 6.93 3.07 9.45
8/12/2022 4:45:00 PM 20.25 68.45 0.07 7.03 2.32 9.46
8/12/2022 5:00:00 PM 20.15 68.27 0.07 6.92 2.69 9.47
8/12/2022 5:15:00 PM 20.07 68.126 0.07 7.03 2.64 9.47
8/12/2022 5:30:00 PM 20.02 68.036 0.07 7.01 2.8 9.47
8/12/2022 5:45:00 PM 19.95 67.91 0.07 7.07 3.3 9.47
8/12/2022 6:00:00 PM 19.9 67.82 0.07 7.08 4.69 9.46
8/12/2022 6:15:00 PM 19.84 67.712 0.071 7.01 3.76 9.45
8/12/2022 6:30:00 PM 19.78 67.604 0.071 7.01 4.78 9.44
8/12/2022 6:45:00 PM 19.73 67.514 0.071 7.04 3.91 9.44
8/12/2022 7:00:00 PM 19.65 67.37 0.071 6.96 3.08 9.43
8/12/2022 7:15:00 PM 19.57 67.226 0.071 6.98 5.64 9.43
8/12/2022 7:30:00 PM 19.49 67.082 0.071 7.05 4.69 9.43
8/12/2022 7:45:00 PM 19.42 66.956 0.071 7.15 2.88 9.43
8/12/2022 8:00:00 PM 19.34 66.812 0.071 7.05 2.21 9.43
8/12/2022 8:15:00 PM 19.24 66.632 0.071 7.01 5.32 9.44
8/12/2022 8:30:00 PM 19.16 66.488 0.071 7.03 5.04 9.44
8/12/2022 8:45:00 PM 19.07 66.326 0.071 7.01 2.3 9.45
8/12/2022 9:00:00 PM 18.97 66.146 0.071 7.03 5.73 9.47
8/12/2022 9:15:00 PM 18.87 65.966 0.071 7.02 5.62 9.49
8/12/2022 9:30:00 PM 18.74 65.732 0.071 6.91 4.55 9.52
8/12/2022 9:45:00 PM 18.61 65.498 0.071 6.78 4.53 9.56
8/12/2022 10:00:00 PM 18.48 65.264 0.071 6.81 2.17 9.57
8/12/2022 10:15:00 PM 18.36 65.048 0.072 6.91 3.8 9.61
8/12/2022 10:30:00 PM 18.26 64.868 0.071 6.94 6.5 9.64
8/12/2022 10:45:00 PM 18.14 64.652 0.071 6.89 5.92 9.67
8/12/2022 11:00:00 PM 18.02 64.436 0.071 7.06 4.52 9.68
8/12/2022 11:15:00 PM 17.91 64.238 0.071 7.07 5.53 9.72
8/12/2022 11:30:00 PM 17.8 64.04 0.071 7 5.56 9.75
8/12/2022 11:45:00 PM 17.69 63.842 0.071 6.88 4.45 9.77
8/13/2022 12:00:00 AM 17.57 63.626 0.071 6.89 4.59 9.8
8/13/2022 12:15:00 AM 17.47 63.446 0.071 7.05 4.46 9.82
8/13/2022 12:30:00 AM 17.35 63.23 0.071 7 4.53 9.85
8/13/2022 12:45:00 AM 17.24 63.032 0.071 7 7 9.86
8/13/2022 1:00:00 AM 17.14 62.852 0.071 7.02 4.13 9.89
8/13/2022 1:15:00 AM 17.05 62.69 0.071 7.01 4.02 9.9
8/13/2022 1:30:00 AM 16.95 62.51 0.071 7.04 4.4 9.93
8/13/2022 1:45:00 AM 16.86 62.348 0.071 7.09 6.53 9.96
8/13/2022 2:00:00 AM 16.75 62.15 0.071 7.07 7.68 9.96
8/13/2022 2:15:00 AM 16.65 61.97 0.071 7.19 4.18 9.99
8/13/2022 2:30:00 AM 16.57 61.826 0.071 7.19 3.33 10.02
8/13/2022 2:45:00 AM 16.48 61.664 0.071 7.19 2.15 10.04
8/13/2022 3:00:00 AM 16.39 61.502 0.071 7.07 2.25 10.06
8/13/2022 3:15:00 AM 16.33 61.394 0.071 7.23 2.05 10.07
8/13/2022 3:30:00 AM 16.24 61.232 0.071 7.16 2.28 10.09
8/13/2022 3:45:00 AM 16.14 61.052 0.071 7.24 2.17 10.1
8/13/2022 4:00:00 AM 16.05 60.89 0.071 7.09 2.65 10.13
8/13/2022 4:15:00 AM 15.98 60.764 0.071 7.18 2.86 10.13
8/13/2022 4:30:00 AM 15.87 60.566 0.071 7.21 3.51 10.19
8/13/2022 4:45:00 AM 15.79 60.422 0.071 7.22 4.51 10.2
8/13/2022 5:00:00 AM 15.7 60.26 0.071 7.21 3.8 10.24
8/13/2022 5:15:00 AM 15.61 60.098 0.071 7.22 2.56 10.26
8/13/2022 5:30:00 AM 15.53 59.954 0.071 7.21 5.56 10.28
8/13/2022 5:45:00 AM 15.45 59.81 0.071 7.2 3.82 10.29
8/13/2022 6:00:00 AM 15.36 59.648 0.071 7.24 5.56 10.31
8/13/2022 6:15:00 AM 15.29 59.522 0.071 7.24 3.55 10.33
8/13/2022 6:30:00 AM 15.21 59.378 0.071 7.25 2.98 10.37
8/13/2022 6:45:00 AM 15.15 59.27 0.071 7.26 3.21 10.4
8/13/2022 7:00:00 AM 15.09 59.162 0.071 7.26 2.32 10.44
8/13/2022 7:15:00 AM 15.05 59.09 0.071 7.25 3.53 10.46
8/13/2022 7:30:00 AM 15.02 59.036 0.071 7.24 2.55 10.48
8/13/2022 7:45:00 AM 15 59 0.071 7.24 2.9 10.51
8/13/2022 8:00:00 AM 15.01 59.018 0.07 7.23 2.71 10.54
8/13/2022 8:15:00 AM 15.03 59.054 0.07 7.26 3.35 10.56
8/13/2022 8:30:00 AM 15.08 59.144 0.07 7.28 2.78 10.57
8/13/2022 8:45:00 AM 15.14 59.252 0.07 7.22 3.33 10.59
8/13/2022 9:00:00 AM 15.21 59.378 0.07 7.19 2.06 10.61
8/13/2022 9:15:00 AM 15.29 59.522 0.07 7.16 2.18 10.62
8/13/2022 9:30:00 AM 15.38 59.684 0.07 7.19 4.73 10.62
8/13/2022 9:45:00 AM 15.52 59.936 0.07 7.19 4.88 10.62
8/13/2022 10:00:00 AM 15.66 60.188 0.07 7.12 5.31 10.62
8/13/2022 10:15:00 AM 15.82 60.476 0.07 7.23 4.99 10.62
8/13/2022 10:30:00 AM 15.99 60.782 0.07 7.22 2.19 10.6
8/13/2022 10:45:00 AM 16.2 61.16 0.069 7.2 2.17 10.61
8/13/2022 11:00:00 AM 16.43 61.574 0.069 7.12 5.53 10.59
8/13/2022 11:15:00 AM 16.71 62.078 0.069 7.11 5.65 10.57
8/13/2022 11:30:00 AM 16.97 62.546 0.069 7.17 5.4 10.54
8/13/2022 11:45:00 AM 17.17 62.906 0.069 7.2 5.54 10.51
8/13/2022 12:00:00 PM 17.33 63.194 0.069 7.15 5.67 10.46
8/13/2022 12:15:00 PM 17.47 63.446 0.069 7.15 5.52 10.43
8/13/2022 12:30:00 PM 17.58 63.644 0.069 7.12 5.7 10.4
8/13/2022 12:45:00 PM 17.72 63.896 0.069 7.14 5.2 10.36
8/13/2022 1:00:00 PM 17.85 64.13 0.069 6.96 5.55 10.31
8/13/2022 1:15:00 PM 18.02 64.436 0.069 7.11 6 10.25
8/13/2022 1:30:00 PM 18.25 64.85 0.069 7.05 5.44 10.17
8/13/2022 1:45:00 PM 18.52 65.336 0.069 7.06 4.86 10.09
8/13/2022 2:00:00 PM 18.79 65.82201 0.069 7.07 4.87 10
8/13/2022 2:15:00 PM 19.07 66.326 0.069 7.01 5.34 9.93
8/13/2022 2:30:00 PM 19.27 66.686 0.069 7.05 5.36 9.87
8/13/2022 2:45:00 PM 19.4 66.92 0.069 6.57 5.99 9.81
8/13/2022 3:00:00 PM 19.46 67.028 0.069 7.03 5.22 9.78
8/13/2022 3:15:00 PM 19.52 67.136 0.069 7.02 4.92 9.77
8/13/2022 3:30:00 PM 19.49 67.082 0.069 6.98 4.03 9.75
8/13/2022 3:45:00 PM 19.5 67.1 0.069 6.97 4.46 9.72
8/13/2022 4:00:00 PM 19.51 67.118 0.069 7.03 5.88 9.7
8/13/2022 4:15:00 PM 19.47 67.046 0.07 6.95 5.34 9.7
8/13/2022 4:30:00 PM 19.4 66.92 0.07 7.17 5.86 9.69
8/13/2022 4:45:00 PM 19.33 66.794 0.07 7.1 5.41 9.69
8/13/2022 5:00:00 PM 19.28 66.704 0.07 7.02 6.07 9.69
8/13/2022 5:15:00 PM 19.23 66.614 0.07 7.06 5.58 9.7
8/13/2022 5:30:00 PM 19.21 66.578 0.07 7.05 6.01 9.67
8/13/2022 5:45:00 PM 19.18 66.524 0.07 7.06 6.16 9.68
8/13/2022 6:00:00 PM 19.14 66.452 0.07 7.14 5.33 9.66
8/13/2022 6:15:00 PM 19.1 66.38 0.07 7.07 5.6 9.65
8/13/2022 6:30:00 PM 19.04 66.272 0.07 7.13 5.59 9.64
8/13/2022 6:45:00 PM 18.99 66.182 0.071 7.14 4.91 9.64
8/13/2022 7:00:00 PM 18.93 66.074 0.071 7.15 5.68 9.61
8/13/2022 7:15:00 PM 18.87 65.966 0.071 7.15 6.16 9.62
8/13/2022 7:30:00 PM 18.8 65.84 0.071 7.11 6.49 9.62
8/13/2022 7:45:00 PM 18.72 65.696 0.071 7.19 5.67 9.63
8/13/2022 8:00:00 PM 18.63 65.534 0.071 7.14 5.11 9.63
8/13/2022 8:15:00 PM 18.51 65.318 0.071 7.16 5.12 9.63
8/13/2022 8:30:00 PM 18.41 65.138 0.071 7.2 5.24 9.62
8/13/2022 8:45:00 PM 18.29 64.922 0.071 7.2 5.66 9.63
8/13/2022 9:00:00 PM 18.18 64.724 0.071 7.11 4.3 9.66
8/13/2022 9:15:00 PM 18.08 64.544 0.071 7.17 5.33 9.69
8/13/2022 9:30:00 PM 17.98 64.364 0.071 7.22 5.68 9.7
8/13/2022 9:45:00 PM 17.87 64.166 0.071 7.1 5.65 9.72
8/13/2022 10:00:00 PM 17.77 63.986 0.071 7.3 5.04 9.74
8/13/2022 10:15:00 PM 17.67 63.806 0.071 7.23 5.65 9.79
8/13/2022 10:30:00 PM 17.57 63.626 0.071 7.18 5.98 9.8
8/13/2022 10:45:00 PM 17.46 63.428 0.071 7.02 5.14 9.81
8/13/2022 11:00:00 PM 17.35 63.23 0.071 7.2 5.16 9.85
8/13/2022 11:15:00 PM 17.26 63.068 0.071 7.22 5.39 9.86
8/13/2022 11:30:00 PM 17.16 62.888 0.071 7.23 5.35 9.88
8/13/2022 11:45:00 PM 17.06 62.708 0.071 7.16 6.09 9.92
8/14/2022 12:00:00 AM 16.97 62.546 0.071 7.05 5.73 9.93
8/14/2022 12:15:00 AM 16.88 62.384 0.071 7.06 4.14 9.95
8/14/2022 12:30:00 AM 16.8 62.24 0.071 7.16 4.76 9.97
8/14/2022 12:45:00 AM 16.72 62.096 0.071 7.25 6.08 9.98
8/14/2022 1:00:00 AM 16.63 61.934 0.071 7.2 4.7 10.01
8/14/2022 1:15:00 AM 16.56 61.808 0.071 6.97 5.36 10.02
8/14/2022 1:30:00 AM 16.48 61.664 0.071 7.04 4.26 10.04
8/14/2022 1:45:00 AM 16.4 61.52 0.071 7.06 4.77 10.07
8/14/2022 2:00:00 AM 16.33 61.394 0.071 7.08 5.74 10.08
8/14/2022 2:15:00 AM 16.24 61.232 0.071 7.08 5.43 10.11
8/14/2022 2:30:00 AM 16.17 61.106 0.071 7.11 4.54 10.11
8/14/2022 2:45:00 AM 16.1 60.98 0.071 7.09 5.37 10.13
8/14/2022 3:00:00 AM 16.02 60.836 0.071 7.02 7.41 10.16
8/14/2022 3:15:00 AM 15.95 60.71 0.071 6.98 5.22 10.15
8/14/2022 3:30:00 AM 15.87 60.566 0.071 7.1 4.61 10.17
8/14/2022 3:45:00 AM 15.81 60.458 0.071 7.18 4.77 10.2
8/14/2022 4:00:00 AM 15.74 60.332 0.071 6.97 4.24 10.2
8/14/2022 4:15:00 AM 15.66 60.188 0.071 7.11 5.29 10.24
8/14/2022 4:30:00 AM 15.61 60.098 0.071 7.13 4.81 10.24
8/14/2022 4:45:00 AM 15.53 59.954 0.071 7.1 5.06 10.25
8/14/2022 5:00:00 AM 15.46 59.828 0.071 7.04 5.71 10.26
8/14/2022 5:15:00 AM 15.39 59.702 0.071 7.1 4.38 10.28
8/14/2022 5:30:00 AM 15.33 59.594 0.071 7.07 4.11 10.31
8/14/2022 5:45:00 AM 15.25 59.45 0.071 7.02 4.14 10.31
8/14/2022 6:00:00 AM 15.19 59.342 0.071 6.96 5.06 10.35
8/14/2022 6:15:00 AM 15.14 59.252 0.071 7 4.47 10.36
8/14/2022 6:30:00 AM 15.08 59.144 0.071 6.99 4.36 10.38
8/14/2022 6:45:00 AM 15.03 59.054 0.071 7.01 4.32 10.39
8/14/2022 7:00:00 AM 15 59 0.07 7.03 4.6 10.44
8/14/2022 7:15:00 AM 14.96 58.928 0.07 7.02 4.39 10.47
8/14/2022 7:30:00 AM 14.96 58.928 0.07 7.2 3.76 10.51
8/14/2022 7:45:00 AM 14.96 58.928 0.07 7.19 3.69 10.58
8/14/2022 8:00:00 AM 15.02 59.036 0.07 7.12 4.39 10.62
8/14/2022 8:15:00 AM 15.08 59.144 0.07 7.18 7.74 10.65
8/14/2022 8:30:00 AM 15.15 59.27 0.07 7.16 5.87 10.67
8/14/2022 8:45:00 AM 15.25 59.45 0.069 7.16 3.81 10.71
8/14/2022 9:00:00 AM 15.36 59.648 0.069 7.18 3.81 10.74
8/14/2022 9:15:00 AM 15.47 59.846 0.069 7.16 4.44 10.77
8/14/2022 9:30:00 AM 15.57 60.026 0.069 7.1 4.65 10.77
8/14/2022 9:45:00 AM 15.71 60.278 0.069 7.12 4.61 10.71
8/14/2022 10:00:00 AM 15.85 60.53 0.069 7.19 4.97 10.65
8/14/2022 10:15:00 AM 15.99 60.782 0.069 7.14 5.25 10.69
8/14/2022 10:30:00 AM 16.07 60.926 0.069 7.17 4.69 10.74
8/14/2022 10:45:00 AM 16.23 61.214 0.068 7.07 4.55 10.79
8/14/2022 11:00:00 AM 16.36 61.448 0.068 7.12 4.94 10.79
8/14/2022 11:15:00 AM 16.53 61.754 0.068 7.15 5.05 10.78
8/14/2022 11:30:00 AM 16.73 62.114 0.068 7.18 3.95 10.77
8/14/2022 11:45:00 AM 16.92 62.456 0.068 7.12 4.83 10.72
8/14/2022 12:00:00 PM 17.16 62.888 0.068 7.11 4.88 10.67
8/14/2022 12:15:00 PM 17.39 63.302 0.068 7.18 4.81 10.6
8/14/2022 12:30:00 PM 17.64 63.752 0.068 6.76 4.75 10.51
8/14/2022 12:45:00 PM 17.75 63.95 0.068 7.08 4.62 10.45
8/14/2022 1:00:00 PM 17.91 64.238 0.068 7.04 5.19 10.37
8/14/2022 1:15:00 PM 18.09 64.562 0.068 6.66 5.27 10.29
8/14/2022 1:30:00 PM 18.26 64.868 0.068 6.06 5.35 10.27
8/14/2022 1:45:00 PM 18.56 65.408 0.068 6.81 4.85 10.25
8/14/2022 2:00:00 PM 18.85 65.93 0.068 5.74 5.12 10.21
8/14/2022 2:15:00 PM 19.07 66.326 0.068 5.91 4.95 10.18
8/14/2022 2:30:00 PM 19.2 66.56 0.068 6.34 5.19 10.15
8/14/2022 2:45:00 PM 19.27 66.686 0.068 5.93 5.13 10.07
8/14/2022 3:00:00 PM 19.34 66.812 0.068 5.46 5.26 9.99
8/14/2022 3:15:00 PM 19.4 66.92 0.068 5.92 4.37 9.98
8/14/2022 3:30:00 PM 19.48 67.064 0.068 5.98 5.14 9.98
8/14/2022 3:45:00 PM 19.51 67.118 0.068 5.79 5.31 9.96
8/14/2022 4:00:00 PM 19.56 67.208 0.068 5.81 5.18 9.91
8/14/2022 4:15:00 PM 19.59 67.262 0.068 5.8 4.95 9.88
8/14/2022 4:30:00 PM 19.59 67.262 0.068 5.75 5.01 9.86
8/14/2022 4:45:00 PM 19.57 67.226 0.068 5.9 5.29 9.87
8/14/2022 5:00:00 PM 19.52 67.136 0.068 5.92 5.33 9.79
8/14/2022 5:15:00 PM 19.48 67.064 0.069 6.08 4.68 9.75
8/14/2022 5:30:00 PM 19.44 66.992 0.069 7.13 4.09 9.75
8/14/2022 5:45:00 PM 19.4 66.92 0.069 5.92 5.08 9.73
8/14/2022 6:00:00 PM 19.37 66.866 0.069 6.98 5.07 9.72
8/14/2022 6:15:00 PM 19.34 66.812 0.069 6.95 5.17 9.68
8/14/2022 6:30:00 PM 19.29 66.722 0.069 6.37 4.69 9.64
8/14/2022 6:45:00 PM 19.24 66.632 0.07 6.94 4.97 9.59
8/14/2022 7:00:00 PM 19.18 66.524 0.07 6.4 4.75 9.57
8/14/2022 7:15:00 PM 19.12 66.416 0.07 6.3 4.94 9.57
8/14/2022 7:30:00 PM 19.06 66.308 0.07 6.84 4.33 9.59
8/14/2022 7:45:00 PM 18.99 66.182 0.07 6.74 4.66 9.58
8/14/2022 8:00:00 PM 18.92 66.056 0.071 6.82 4.72 9.55
8/14/2022 8:15:00 PM 18.84 65.912 0.071 6.67 4.69 9.56
8/14/2022 8:30:00 PM 18.75 65.75 0.071 6.9 4.91 9.59
8/14/2022 8:45:00 PM 18.66 65.588 0.071 6.94 5.03 9.61
8/14/2022 9:00:00 PM 18.57 65.426 0.071 6.48 5.01 9.6
8/14/2022 9:15:00 PM 18.48 65.264 0.071 6.83 4.68 9.62
8/14/2022 9:30:00 PM 18.38 65.084 0.071 6.14 4.41 9.63
8/14/2022 9:45:00 PM 18.3 64.94 0.071 6.42 4.67 9.72
8/14/2022 10:00:00 PM 18.2 64.76 0.071 6.13 4.56 9.73
8/14/2022 10:15:00 PM 18.11 64.598 0.071 6.21 4.52 9.73
8/14/2022 10:30:00 PM 18.03 64.454 0.071 6.32 4.85 9.74
8/14/2022 10:45:00 PM 17.95 64.31 0.071 6.71 4.52 9.79
8/14/2022 11:00:00 PM 17.87 64.166 0.071 6.23 4.44 9.82
8/14/2022 11:15:00 PM 17.8 64.04 0.071 6.28 4.5 9.84
8/14/2022 11:30:00 PM 17.74 63.932 0.071 6.33 4.23 9.84
8/14/2022 11:45:00 PM 17.68 63.824 0.071 6.33 4.37 9.86
8/15/2022 12:00:00 AM 17.62 63.716 0.071 6.21 4.94 9.87
8/15/2022 12:15:00 AM 17.57 63.626 0.071 6.22 4.28 9.87
8/15/2022 12:30:00 AM 17.51 63.518 0.071 6.6 4.01 9.87
8/15/2022 12:45:00 AM 17.45 63.41 0.071 6.9 3.54 9.9
8/15/2022 1:00:00 AM 17.4 63.32 0.071 6.47 4.12 9.9
8/15/2022 1:15:00 AM 17.34 63.212 0.071 6.32 4.19 9.91
8/15/2022 1:30:00 AM 17.29 63.122 0.071 6.45 4.29 9.93
8/15/2022 1:45:00 AM 17.23 63.014 0.071 6.38 3.74 9.92
8/15/2022 2:00:00 AM 17.18 62.924 0.071 6.93 4.41 9.99
8/15/2022 2:15:00 AM 17.12 62.816 0.071 6.85 3.56 9.97
8/15/2022 2:30:00 AM 17.06 62.708 0.071 6.87 3.85 9.95
8/15/2022 2:45:00 AM 17 62.6 0.071 7.02 3.46 9.97
8/15/2022 3:00:00 AM 16.94 62.492 0.071 6.96 4.18 9.97
8/15/2022 3:15:00 AM 16.88 62.384 0.071 6.35 4.38 10
8/15/2022 3:30:00 AM 16.82 62.276 0.071 6.56 4.13 10.01
8/15/2022 3:45:00 AM 16.77 62.186 0.071 6.69 4.69 10.01
8/15/2022 4:00:00 AM 16.72 62.096 0.071 6.8 3.79 10.02
8/15/2022 4:15:00 AM 16.67 62.006 0.071 6.55 3.68 10.03
8/15/2022 4:30:00 AM 16.63 61.934 0.071 6.87 2.95 10.03
8/15/2022 4:45:00 AM 16.59 61.862 0.071 6.94 4.14 10.03
8/15/2022 5:00:00 AM 16.55 61.79 0.071 6.96 3.9 10.02
8/15/2022 5:15:00 AM 16.51 61.718 0.071 6.9 3.76 10.02
8/15/2022 5:30:00 AM 16.47 61.646 0.071 6.76 3.33 10.09
8/15/2022 5:45:00 AM 16.42 61.556 0.071 6.8 3.93 10.08
8/15/2022 6:00:00 AM 16.38 61.484 0.071 6.6 4.28 10.12
8/15/2022 6:15:00 AM 16.34 61.412 0.071 6.65 4.06 10.12
8/15/2022 6:30:00 AM 16.29 61.322 0.071 6.74 4.33 10.1
8/15/2022 6:45:00 AM 16.24 61.232 0.071 6.76 4.32 10.09
8/15/2022 7:00:00 AM 16.2 61.16 0.071 6.74 4.26 10.11
8/15/2022 7:15:00 AM 16.17 61.106 0.071 6.89 3.87 10.14
8/15/2022 7:30:00 AM 16.16 61.088 0.07 6.93 4.03 10.16
8/15/2022 7:45:00 AM 16.14 61.052 0.07 6.91 3.36 10.18
8/15/2022 8:00:00 AM 16.14 61.052 0.07 7.02 3.36 10.21
8/15/2022 8:15:00 AM 16.17 61.106 0.07 6.99 2.93 10.28
8/15/2022 8:30:00 AM 16.23 61.214 0.07 7.06 2.74 10.4
8/15/2022 8:45:00 AM 16.29 61.322 0.07 6.94 3.45 10.46
8/15/2022 9:00:00 AM 16.37 61.466 0.069 6.89 3.63 10.51
8/15/2022 9:15:00 AM 16.43 61.574 0.069 6.86 3.95 10.49
8/15/2022 9:30:00 AM 16.53 61.754 0.069 7.03 3.48 10.48
8/15/2022 9:45:00 AM 16.62 61.916 0.069 7.01 3.94 10.49
8/15/2022 10:00:00 AM 16.69 62.042 0.069 6.99 4.12 10.53
8/15/2022 10:15:00 AM 16.79 62.222 0.069 7.12 4.67 10.57
8/15/2022 10:30:00 AM 16.92 62.456 0.068 6.98 4.62 10.61
8/15/2022 10:45:00 AM 17.02 62.636 0.068 6.97 4.7 10.61
8/15/2022 11:00:00 AM 17.14 62.852 0.068 7.05 4.62 10.6
8/15/2022 11:15:00 AM 17.25 63.05 0.068 7.03 4.73 10.59
8/15/2022 11:30:00 AM 17.37 63.266 0.068 7.06 4.36 10.56
8/15/2022 11:45:00 AM 17.73 63.914 0.068 7.08 4.04 10.59
8/15/2022 12:00:00 PM 18.1 64.58 0.068 6.9 4.43 10.53
8/15/2022 12:15:00 PM 18.34 65.012 0.068 6.71 4.47 10.48
8/15/2022 12:30:00 PM 18.49 65.282 0.068 6.51 4.41 10.44
8/15/2022 12:45:00 PM 18.45 65.21 0.068 6.45 4.75 10.4
8/15/2022 1:00:00 PM 18.56 65.408 0.068 6.39 4.88 10.38
8/15/2022 1:15:00 PM 18.68 65.624 0.068 5.87 4.56 10.33
8/15/2022 1:30:00 PM 18.87 65.966 0.068 6.02 4.31 10.28
8/15/2022 1:45:00 PM 19.01 66.218 0.068 6.14 4.47 10.21
8/15/2022 2:00:00 PM 19.12 66.416 0.068 6.12 4.86 10.13
8/15/2022 2:15:00 PM 19.22 66.596 0.068 6.07 4.48 10.13
8/15/2022 2:30:00 PM 19.24 66.632 0.068 5.99 3.74 10.1
8/15/2022 2:45:00 PM 19.25 66.65 0.068 6.01 4.45 10.06
8/15/2022 3:00:00 PM 19.27 66.686 0.068 6.18 4.52 10.07
8/15/2022 3:15:00 PM 19.29 66.722 0.068 6.19 4.21 10.04
8/15/2022 3:30:00 PM 19.32 66.776 0.068 6.42 4.5 10.01
8/15/2022 3:45:00 PM 19.34 66.812 0.068 6.18 4.39 9.96
8/15/2022 4:00:00 PM 19.35 66.83 0.068 6.93 4.77 9.93
8/15/2022 4:15:00 PM 19.35 66.83 0.068 6.66 4.26 9.9
8/15/2022 4:30:00 PM 19.36 66.848 0.068 6.41 4.47 9.85
8/15/2022 4:45:00 PM 19.34 66.812 0.068 6.8 4.27 9.8
8/15/2022 5:00:00 PM 19.33 66.794 0.069 7.08 3.77 9.75
8/15/2022 5:15:00 PM 19.3 66.74 0.069 6.98 4.39 9.72
8/15/2022 5:30:00 PM 19.27 66.686 0.069 6.28 3.9 9.72
8/15/2022 5:45:00 PM 19.24 66.632 0.069 6.87 4.15 9.72
8/15/2022 6:00:00 PM 19.21 66.578 0.069 6.81 3.67 9.74
8/15/2022 6:15:00 PM 19.19 66.542 0.069 6.34 4.39 9.72
8/15/2022 6:30:00 PM 19.17 66.506 0.069 6.53 4.38 9.71
8/15/2022 6:45:00 PM 19.15 66.47 0.069 6.39 4.02 9.71
8/15/2022 7:00:00 PM 19.13 66.434 0.069 6.22 3.68 9.67
8/15/2022 7:15:00 PM 19.1 66.38 0.07 6.88 4.15 9.64
8/15/2022 7:30:00 PM 19.07 66.326 0.07 6.86 4.25 9.61
8/15/2022 7:45:00 PM 19.02 66.236 0.07 6.37 4.05 9.59
8/15/2022 8:00:00 PM 18.97 66.146 0.07 6.96 4.33 9.57
8/15/2022 8:15:00 PM 18.92 66.056 0.07 6.94 4.14 9.56
8/15/2022 8:30:00 PM 18.88 65.984 0.071 6.79 4.22 9.58
8/15/2022 8:45:00 PM 18.83 65.894 0.071 6.99 4.1 9.58
8/15/2022 9:00:00 PM 18.78 65.804 0.071 7.03 3.7 9.59
8/15/2022 9:15:00 PM 18.73 65.714 0.071 6.49 4.2 9.61
8/15/2022 9:30:00 PM 18.69 65.642 0.071 6.77 4.17 9.6
8/15/2022 9:45:00 PM 18.65 65.57 0.071 6.83 4.15 9.63
8/15/2022 10:00:00 PM 18.6 65.48 0.071 6.26 4.27 9.6
8/15/2022 10:15:00 PM 18.57 65.426 0.071 6.28 4.12 9.64
8/15/2022 10:30:00 PM 18.53 65.354 0.071 6.53 4.09 9.64
8/15/2022 10:45:00 PM 18.48 65.264 0.071 6.41 4.26 9.66
8/15/2022 11:00:00 PM 18.44 65.192 0.071 6.31 3.51 9.66
8/15/2022 11:15:00 PM 18.39 65.102 0.071 6.49 4.04 9.66
8/15/2022 11:30:00 PM 18.35 65.03 0.071 6.52 4.06 9.68
8/15/2022 11:45:00 PM 18.32 64.976 0.071 6.07 4.19 9.69
8/16/2022 12:00:00 AM 18.28 64.904 0.071 6.36 4.03 9.69
8/16/2022 12:15:00 AM 18.25 64.85 0.071 6.45 4 9.7
8/16/2022 12:30:00 AM 18.21 64.778 0.071 6.31 4.11 9.72
8/16/2022 12:45:00 AM 18.17 64.706 0.071 6.38 4.45 9.75
8/16/2022 1:00:00 AM 18.13 64.634 0.071 6.31 4.03 9.72
8/16/2022 1:15:00 AM 18.08 64.544 0.071 6.28 4.13 9.75
8/16/2022 1:30:00 AM 18.02 64.436 0.071 6.37 3.77 9.84
8/16/2022 1:45:00 AM 17.96 64.328 0.071 6.3 4.29 9.93
8/16/2022 2:00:00 AM 17.9 64.22 0.071 6.56 4.01 9.94
8/16/2022 2:15:00 AM 17.85 64.13 0.071 6.98 3.85 10.02
8/16/2022 2:30:00 AM 17.79 64.022 0.07 6.82 3.55 10.03
8/16/2022 2:45:00 AM 17.75 63.95 0.071 6.37 3.8 10
8/16/2022 3:00:00 AM 17.7 63.86 0.071 6.32 3.01 9.87
8/16/2022 3:15:00 AM 17.66 63.788 0.071 6.48 3.51 9.81
8/16/2022 3:30:00 AM 17.62 63.716 0.071 6.32 3.52 9.79
8/16/2022 3:45:00 AM 17.58 63.644 0.071 6.45 3.68 9.78
8/16/2022 4:00:00 AM 17.54 63.572 0.071 6.94 3.6 9.79
8/16/2022 4:15:00 AM 17.5 63.5 0.071 6.38 3.8 9.8
8/16/2022 4:30:00 AM 17.45 63.41 0.071 6.4 2.79 9.82
8/16/2022 4:45:00 AM 17.4 63.32 0.071 6.29 3.96 9.85
8/16/2022 5:00:00 AM 17.35 63.23 0.071 6.28 3.83 9.84
8/16/2022 5:15:00 AM 17.31 63.158 0.071 6.37 4.04 9.85
8/16/2022 5:30:00 AM 17.25 63.05 0.071 6.49 4.22 9.86
8/16/2022 5:45:00 AM 17.2 62.96 0.071 6.37 3.99 9.86
8/16/2022 6:00:00 AM 17.16 62.888 0.071 6.34 3.51 9.86
8/16/2022 6:15:00 AM 17.11 62.798 0.071 6.36 3.71 9.89
8/16/2022 6:30:00 AM 17.06 62.708 0.071 6.59 3.64 9.9
8/16/2022 6:45:00 AM 17.03 62.654 0.071 6.29 4.35 9.93
8/16/2022 7:00:00 AM 17 62.6 0.071 6.24 2.87 9.96
8/16/2022 7:15:00 AM 16.97 62.546 0.07 6.26 3.05 10
8/16/2022 7:30:00 AM 16.96 62.528 0.07 6.34 3.61 10.06
8/16/2022 7:45:00 AM 16.96 62.528 0.07 6.34 3.29 10.09
8/16/2022 8:00:00 AM 16.97 62.546 0.07 6.56 2.38 10.11
8/16/2022 8:15:00 AM 16.99 62.582 0.07 6.72 2.7 10.13
8/16/2022 8:30:00 AM 17.02 62.636 0.07 6.38 2.85 10.17
8/16/2022 8:45:00 AM 17.06 62.708 0.07 6.46 3.34 10.19
8/16/2022 9:00:00 AM 17.1 62.78 0.07 6.45 3.2 10.2
8/16/2022 9:15:00 AM 17.16 62.888 0.069 6.74 3.62 10.24
8/16/2022 9:30:00 AM 17.25 63.05 0.069 6.76 3.85 10.3
8/16/2022 9:45:00 AM 17.35 63.23 0.069 6.42 4.1 10.35
8/16/2022 10:00:00 AM 17.46 63.428 0.069 6.98 4.27 10.38
8/16/2022 10:15:00 AM 17.61 63.698 0.069 6.9 4.4 10.39
8/16/2022 10:30:00 AM 17.72 63.896 0.068 6.79 4.22 10.38
8/16/2022 10:45:00 AM 17.84 64.112 0.068 6.96 4.37 10.41
8/16/2022 11:00:00 AM 18.03 64.454 0.068 6.82 3.95 10.41
8/16/2022 11:15:00 AM 18.29 64.922 0.068 6.43 4.62 10.37
8/16/2022 11:30:00 AM 18.49 65.282 0.068 6.56 4.52 10.36
8/16/2022 11:45:00 AM 18.58 65.444 0.068 6.94 4.18 10.34
8/16/2022 12:00:00 PM 18.64 65.552 0.068 6.94 4.45 10.33
8/16/2022 12:15:00 PM 18.73 65.714 0.068 6.69 4.33 10.3
8/16/2022 12:30:00 PM 18.74 65.732 0.068 6.93 4.57 10.27
8/16/2022 12:45:00 PM 18.94 66.092 0.068 6.66 4.47 10.29
8/16/2022 1:00:00 PM 18.95 66.11 0.068 6.83 4.35 10.23
8/16/2022 1:15:00 PM 19.12 66.416 0.068 6.85 4.96 10.26
8/16/2022 1:30:00 PM 19.26 66.668 0.068 6.78 4.84 10.2
8/16/2022 1:45:00 PM 19.32 66.776 0.068 6.97 5.64 10.09
8/16/2022 2:00:00 PM 19.51 67.118 0.068 6.95 4.97 9.98
8/16/2022 2:15:00 PM 19.57 67.226 0.068 6.55 4.75 9.93
8/16/2022 2:30:00 PM 19.71 67.478 0.068 7.13 4.34 9.97
8/16/2022 2:45:00 PM 19.74 67.532 0.068 6.65 4.76 9.91
8/16/2022 3:00:00 PM 19.76 67.568 0.068 6.61 4.36 9.86
8/16/2022 3:15:00 PM 19.76 67.568 0.068 5.91 5.37 9.83
8/16/2022 3:30:00 PM 19.82 67.676 0.068 5.73 5.27 9.76
8/16/2022 3:45:00 PM 19.91 67.838 0.068 5.88 4.74 9.72
8/16/2022 4:00:00 PM 19.96 67.92799 0.069 5.71 5.11 9.65
8/16/2022 4:15:00 PM 19.9 67.82 0.069 5.68 5.05 9.66
8/16/2022 4:30:00 PM 19.9 67.82 0.069 5.83 5.82 9.66
8/16/2022 4:45:00 PM 19.82 67.676 0.069 5.88 5.74 9.64
8/16/2022 5:00:00 PM 19.77 67.586 0.069 6.08 4.61 9.63
8/16/2022 5:15:00 PM 19.76 67.568 0.069 6.11 4.43 9.63
8/16/2022 5:30:00 PM 19.71 67.478 0.069 6.04 5.08 9.62
8/16/2022 5:45:00 PM 19.67 67.406 0.069 6.38 4.74 9.58
8/16/2022 6:00:00 PM 19.64 67.352 0.069 6.97 5.23 9.57
8/16/2022 6:15:00 PM 19.6 67.28 0.07 6.96 5.37 9.57
8/16/2022 6:30:00 PM 19.57 67.226 0.07 6.58 5.69 9.56
8/16/2022 6:45:00 PM 19.53 67.154 0.07 6.34 4.8 9.51
8/16/2022 7:00:00 PM 19.48 67.064 0.07 6.99 4.43 9.51
8/16/2022 7:15:00 PM 19.41 66.938 0.07 7.1 4.6 9.48
8/16/2022 7:30:00 PM 19.33 66.794 0.07 6.79 4.56 9.47
8/16/2022 7:45:00 PM 19.26 66.668 0.07 6.79 4.32 9.46
8/16/2022 8:00:00 PM 19.19 66.542 0.071 6.72 4.93 9.47
8/16/2022 8:15:00 PM 19.11 66.398 0.071 6.92 4.16 9.46
8/16/2022 8:30:00 PM 19.06 66.308 0.071 6.51 4.47 9.46
8/16/2022 8:45:00 PM 19.02 66.236 0.071 6.71 4.97 9.47
8/16/2022 9:00:00 PM 18.97 66.146 0.071 6.66 4.88 9.47
8/16/2022 9:15:00 PM 18.92 66.056 0.071 6.69 4.88 9.51
8/16/2022 9:30:00 PM 18.86 65.948 0.071 6.82 4.15 9.51
8/16/2022 9:45:00 PM 18.8 65.84 0.071 6.93 4.89 9.56
8/16/2022 10:00:00 PM 18.74 65.732 0.071 6.91 4.49 9.62
8/16/2022 10:15:00 PM 18.67 65.606 0.071 6.82 4.86 9.74
8/16/2022 10:30:00 PM 18.58 65.444 0.071 6.87 4.74 9.85
8/16/2022 10:45:00 PM 18.51 65.318 0.07 7.01 4.78 9.92
8/16/2022 11:00:00 PM 18.42 65.156 0.067 6.93 4.53 10.02
8/16/2022 11:15:00 PM 18.32 64.976 0.062 6.68 5.46 10.09
8/16/2022 11:30:00 PM 18.23 64.814 0.052 6.83 4.46 10.14
8/16/2022 11:45:00 PM 18.16 64.688 0.061 6.59 4.68 10.14
8/17/2022 12:00:00 AM 18.06 64.508 0.04 6.93 3.12 10.18
8/17/2022 12:15:00 AM 18 64.4 0.061 6.9 4.01 10.15
8/17/2022 12:30:00 AM 17.95 64.31 0.069 6.84 4.19 10.1
8/17/2022 12:45:00 AM 17.89 64.202 0.071 6.61 3.74 10.01
8/17/2022 1:00:00 AM 17.82 64.076 0.071 6.79 4.58 9.96
8/17/2022 1:15:00 AM 17.74 63.932 0.071 6.7 4.63 9.96
8/17/2022 1:30:00 AM 17.68 63.824 0.071 6.97 4.15 9.94
8/17/2022 1:45:00 AM 17.6 63.68 0.071 6.91 4.57 9.94
8/17/2022 2:00:00 AM 17.53 63.554 0.071 6.87 4.11 9.94
8/17/2022 2:15:00 AM 17.46 63.428 0.071 6.8 4.56 9.92
8/17/2022 2:30:00 AM 17.4 63.32 0.071 6.76 4.18 9.97
8/17/2022 2:45:00 AM 17.33 63.194 0.071 6.62 4.31 9.94
8/17/2022 3:00:00 AM 17.27 63.086 0.071 6.63 4.32 9.96
8/17/2022 3:15:00 AM 17.22 62.996 0.071 6.78 3.98 9.98
8/17/2022 3:30:00 AM 17.16 62.888 0.071 6.56 4.27 10
8/17/2022 3:45:00 AM 17.1 62.78 0.071 6.8 3.93 10.02
8/17/2022 4:00:00 AM 17.03 62.654 0.071 6.55 4.13 10.04
8/17/2022 4:15:00 AM 16.98 62.564 0.071 6.83 3.96 10.06
8/17/2022 4:30:00 AM 16.92 62.456 0.071 6.67 4.34 10.06
8/17/2022 4:45:00 AM 16.86 62.348 0.071 6.79 4.37 10.09
8/17/2022 5:00:00 AM 16.8 62.24 0.07 6.93 3.59 10.1
8/17/2022 5:15:00 AM 16.75 62.15 0.07 6.75 3.97 10.14
8/17/2022 5:30:00 AM 16.7 62.06 0.07 7.03 3.88 10.15
8/17/2022 5:45:00 AM 16.65 61.97 0.07 6.96 4.1 10.15
8/17/2022 6:00:00 AM 16.6 61.88 0.07 7 3.77 10.16
8/17/2022 6:15:00 AM 16.54 61.772 0.07 6.9 4.14 10.17
8/17/2022 6:30:00 AM 16.49 61.682 0.07 6.88 3.37 10.2
8/17/2022 6:45:00 AM 16.44 61.592 0.07 7.04 3.99 10.23
8/17/2022 7:00:00 AM 16.39 61.502 0.07 6.9 4.42 10.27
8/17/2022 7:15:00 AM 16.35 61.43 0.07 7.14 4.15 10.29
8/17/2022 7:30:00 AM 16.32 61.376 0.07 6.95 3.94 10.31
8/17/2022 7:45:00 AM 16.3 61.34 0.07 7.05 4.11 10.33
8/17/2022 8:00:00 AM 16.3 61.34 0.07 7.03 3.15 10.33
8/17/2022 8:15:00 AM 16.3 61.34 0.07 6.99 3.3 10.35
8/17/2022 8:30:00 AM 16.34 61.412 0.07 7.03 3.6 10.38
8/17/2022 8:45:00 AM 16.42 61.556 0.069 7 3.31 10.43
8/17/2022 9:00:00 AM 16.48 61.664 0.069 6.97 3.04 10.45
8/17/2022 9:15:00 AM 16.56 61.808 0.069 7.13 2.52 10.5
8/17/2022 9:30:00 AM 16.63 61.934 0.069 7.01 2.98 10.49
8/17/2022 9:45:00 AM 16.71 62.078 0.068 7.02 3.36 10.52
8/17/2022 10:00:00 AM 16.78 62.204 0.068 7.06 3.53 10.51
8/17/2022 10:15:00 AM 16.85 62.33 0.068 7.12 2.85 10.47
8/17/2022 10:30:00 AM 16.91 62.438 0.068 7.09 3.43 10.43
8/17/2022 10:45:00 AM 16.97 62.546 0.068 7.04 3.64 10.43
8/17/2022 11:00:00 AM 17.03 62.654 0.068 7.18 3.7 10.42
8/17/2022 11:15:00 AM 17.09 62.762 0.068 7.04 3.79 10.43
8/17/2022 11:30:00 AM 17.16 62.888 0.068 7.01 4.34 10.44
8/17/2022 11:45:00 AM 17.22 62.996 0.068 7.12 3.59 10.45
8/17/2022 12:00:00 PM 17.26 63.068 0.068 7.11 3.52 10.4
8/17/2022 12:15:00 PM 17.31 63.158 0.068 7.07 3.81 10.38
8/17/2022 12:30:00 PM 17.38 63.284 0.068 7.1 3.94 10.41
8/17/2022 12:45:00 PM 17.48 63.464 0.068 7.12 3.75 10.49
8/17/2022 1:00:00 PM 17.56 63.608 0.068 7.09 3.63 10.49
8/17/2022 1:15:00 PM 17.62 63.716 0.068 7.12 4.2 10.45
8/17/2022 1:30:00 PM 17.69 63.842 0.068 7.15 4.08 10.42
8/17/2022 1:45:00 PM 17.75 63.95 0.068 7.19 4.3 10.39
8/17/2022 2:00:00 PM 17.81 64.058 0.068 7.18 3.25 10.4
8/17/2022 2:15:00 PM 17.89 64.202 0.068 7.18 3.72 10.43
8/17/2022 2:30:00 PM 17.98 64.364 0.067 7.1 3.94 10.44
8/17/2022 2:45:00 PM 18.05 64.49 0.067 7.31 4.32 10.42
8/17/2022 3:00:00 PM 18.13 64.634 0.067 7.19 4.37 10.36
8/17/2022 3:15:00 PM 18.22 64.796 0.067 7.16 4.23 10.25
8/17/2022 3:30:00 PM 18.29 64.922 0.068 7.03 4.4 10.16
8/17/2022 3:45:00 PM 18.39 65.102 0.068 7.17 4.49 10.09
8/17/2022 4:00:00 PM 18.52 65.336 0.068 7.29 4.2 10.06
8/17/2022 4:15:00 PM 18.58 65.444 0.068 7.02 4.95 10.05
8/17/2022 4:30:00 PM 18.62 65.516 0.068 7.21 4.15 10.06
8/17/2022 4:45:00 PM 18.57 65.426 0.068 7.09 4.79 10.01
8/17/2022 5:00:00 PM 18.56 65.408 0.068 7.18 4.33 9.98
8/17/2022 5:15:00 PM 18.54 65.372 0.068 7.18 4.41 9.97
8/17/2022 5:30:00 PM 18.54 65.372 0.068 7.22 4.07 9.97
8/17/2022 5:45:00 PM 18.53 65.354 0.069 7.22 4.69 9.94
8/17/2022 6:00:00 PM 18.51 65.318 0.069 7.25 4.72 9.96
8/17/2022 6:15:00 PM 18.48 65.264 0.069 7.21 5.06 9.94
8/17/2022 6:30:00 PM 18.43 65.174 0.069 7.22 4.29 9.94
8/17/2022 6:45:00 PM 18.39 65.102 0.069 7.19 4.85 9.96
8/17/2022 7:00:00 PM 18.35 65.03 0.069 7.21 4.83 9.94
8/17/2022 7:15:00 PM 18.29 64.922 0.069 7.19 4.5 9.95
8/17/2022 7:30:00 PM 18.26 64.868 0.069 7.18 4.5 9.94
8/17/2022 7:45:00 PM 18.23 64.814 0.069 7.2 4.48 9.95
8/17/2022 8:00:00 PM 18.21 64.778 0.07 7.23 4.21 9.93
8/17/2022 8:15:00 PM 18.18 64.724 0.07 7.11 4.2 9.93
8/17/2022 8:30:00 PM 18.13 64.634 0.07 7.15 4.2 9.97
8/17/2022 8:45:00 PM 18.09 64.562 0.07 7.16 4.17 9.97
8/17/2022 9:00:00 PM 18.05 64.49 0.07 7.12 4.07 9.99
8/17/2022 9:15:00 PM 18 64.4 0.07 7.12 4.24 10.01
8/17/2022 9:30:00 PM 17.95 64.31 0.07 7.16 4.32 10.02
8/17/2022 9:45:00 PM 17.91 64.238 0.07 7.11 4.21 10.06
8/17/2022 10:00:00 PM 17.85 64.13 0.07 7.17 4.22 10.08
8/17/2022 10:15:00 PM 17.79 64.022 0.07 7.04 3.65 10.09
8/17/2022 10:30:00 PM 17.73 63.914 0.069 7.11 3.79 10.11
8/17/2022 10:45:00 PM 17.66 63.788 0.069 7.16 4.01 10.12
8/17/2022 11:00:00 PM 17.59 63.662 0.069 7.13 3.67 10.14
8/17/2022 11:15:00 PM 17.52 63.536 0.069 7.11 4.17 10.16
8/17/2022 11:30:00 PM 17.45 63.41 0.069 7.17 4.14 10.19
8/17/2022 11:45:00 PM 17.38 63.284 0.069 7.14 4.31 10.2
8/18/2022 12:00:00 AM 17.3 63.14 0.069 7.11 4.37 10.21
8/18/2022 12:15:00 AM 17.23 63.014 0.068 7.14 4.13 10.24
8/18/2022 12:30:00 AM 17.16 62.888 0.068 6.96 4.01 10.26
8/18/2022 12:45:00 AM 17.09 62.762 0.068 6.92 4.73 10.27
8/18/2022 1:00:00 AM 17.02 62.636 0.068 6.95 3.74 10.29
8/18/2022 1:15:00 AM 16.95 62.51 0.068 6.96 3.66 10.29
8/18/2022 1:30:00 AM 16.87 62.366 0.068 6.96 4.14 10.32
8/18/2022 1:45:00 AM 16.8 62.24 0.068 6.97 3.38 10.34
8/18/2022 2:00:00 AM 16.72 62.096 0.068 6.94 3.91 10.35
8/18/2022 2:15:00 AM 16.65 61.97 0.068 6.88 3.91 10.36
8/18/2022 2:30:00 AM 16.57 61.826 0.068 6.99 3.61 10.39
8/18/2022 2:45:00 AM 16.5 61.7 0.068 6.99 3.71 10.4
8/18/2022 3:00:00 AM 16.43 61.574 0.068 7.05 4.27 10.43
8/18/2022 3:15:00 AM 16.37 61.466 0.068 7.01 3.57 10.43
8/18/2022 3:30:00 AM 16.31 61.358 0.068 7.01 3.42 10.44
8/18/2022 3:45:00 AM 16.24 61.232 0.068 6.96 3.62 10.46
8/18/2022 4:00:00 AM 16.18 61.124 0.068 6.82 3.81 10.46
8/18/2022 4:15:00 AM 16.12 61.016 0.068 7.01 3.46 10.45
8/18/2022 4:30:00 AM 16.05 60.89 0.069 7.03 3.46 10.48
8/18/2022 4:45:00 AM 15.98 60.764 0.068 7.05 3.46 10.49
8/18/2022 5:00:00 AM 15.93 60.674 0.068 7.03 3.71 10.5
8/18/2022 5:15:00 AM 15.85 60.53 0.068 7.03 3.47 10.52
8/18/2022 5:30:00 AM 15.79 60.422 0.069 7.02 3.01 10.54
8/18/2022 5:45:00 AM 15.74 60.332 0.069 7.08 3.41 10.54
8/18/2022 6:00:00 AM 15.66 60.188 0.068 7.05 3.04 10.54
8/18/2022 6:15:00 AM 15.59 60.062 0.069 6.99 3.16 10.57
8/18/2022 6:30:00 AM 15.53 59.954 0.068 7.04 3.81 10.59
8/18/2022 6:45:00 AM 15.47 59.846 0.068 6.99 3.26 10.6
8/18/2022 7:00:00 AM 15.43 59.774 0.068 7.02 3.45 10.62
8/18/2022 7:15:00 AM 15.39 59.702 0.069 6.98 2.95 10.63
8/18/2022 7:30:00 AM 15.37 59.666 0.069 7.08 2.76 10.63
8/18/2022 7:45:00 AM 15.36 59.648 0.069 7.12 2.46 10.64
8/18/2022 8:00:00 AM 15.35 59.63 0.069 7.14 2.99 10.64
8/18/2022 8:15:00 AM 15.39 59.702 0.069 7.11 2.56 10.64
8/18/2022 8:30:00 AM 15.44 59.792 0.069 7.12 2.91 10.62
8/18/2022 8:45:00 AM 15.5 59.9 0.069 7.16 2.52 10.63
8/18/2022 9:00:00 AM 15.59 60.062 0.069 7.1 2.29 10.58
8/18/2022 9:15:00 AM 15.69 60.242 0.069 7.18 3.19 10.58
8/18/2022 9:30:00 AM 15.79 60.422 0.069 7.26 3.32 10.57
8/18/2022 9:45:00 AM 15.91 60.638 0.069 7.33 3.08 10.56
8/18/2022 10:00:00 AM 16.04 60.872 0.069 7.32 3.1 10.55
8/18/2022 10:15:00 AM 16.18 61.124 0.068 7.27 2.89 10.54
8/18/2022 10:30:00 AM 16.34 61.412 0.068 7.16 2.87 10.53
8/18/2022 10:45:00 AM 16.53 61.754 0.068 7.26 3.01 10.51
8/18/2022 11:00:00 AM 16.77 62.186 0.068 7.29 2.88 10.49
8/18/2022 11:15:00 AM 17.05 62.69 0.068 7.33 3.04 10.46
8/18/2022 11:30:00 AM 17.3 63.14 0.068 7.27 4.28 10.42
8/18/2022 11:45:00 AM 17.52 63.536 0.068 6.94 3.84 10.37
8/18/2022 12:00:00 PM 17.72 63.896 0.068 6.88 3.11 10.34
8/18/2022 12:15:00 PM 17.81 64.058 0.068 6.32 3.15 10.32
8/18/2022 12:30:00 PM 18.03 64.454 0.068 7.46 3.41 10.32
8/18/2022 12:45:00 PM 18 64.4 0.068 6.5 3.63 10.27
8/18/2022 1:00:00 PM 17.95 64.31 0.068 6.35 3.3 10.2
8/18/2022 1:15:00 PM 18.11 64.598 0.067 6.26 3.71 10.18
8/18/2022 1:30:00 PM 18.16 64.688 0.068 7.36 3.77 10.11
8/18/2022 1:45:00 PM 18.31 64.958 0.067 7.23 4.73 10.14
8/18/2022 2:00:00 PM 18.49 65.282 0.067 7.03 3.91 10.13
8/18/2022 2:15:00 PM 18.49 65.282 0.067 7.28 3.97 10.11
8/18/2022 2:30:00 PM 18.64 65.552 0.067 7.34 3.94 10.09
8/18/2022 2:45:00 PM 18.75 65.75 0.067 7.12 3.77 10.06
8/18/2022 3:00:00 PM 18.72 65.696 0.067 7.24 4.06 10.04
8/18/2022 3:15:00 PM 18.66 65.588 0.067 7.23 4.54 10.02
8/18/2022 3:30:00 PM 18.63 65.534 0.067 7.35 4.27 10.04
8/18/2022 3:45:00 PM 18.63 65.534 0.067 7.03 4.68 10.06
8/18/2022 4:00:00 PM 18.63 65.534 0.067 7.28 4.12 10.07
8/18/2022 4:15:00 PM 18.63 65.534 0.067 7.29 4.18 10.06
8/18/2022 4:30:00 PM 18.65 65.57 0.068 7.19 4.2 10.02
8/18/2022 4:45:00 PM 18.67 65.606 0.067 7.21 4.39 10.04
8/18/2022 5:00:00 PM 18.69 65.642 0.068 7.13 4.9 10.01
8/18/2022 5:15:00 PM 18.7 65.66 0.068 7.21 4.5 9.99
8/18/2022 5:30:00 PM 18.72 65.696 0.068 7.22 3.9 9.99
8/18/2022 5:45:00 PM 18.73 65.714 0.068 7.19 4.53 9.96
8/18/2022 6:00:00 PM 18.72 65.696 0.068 7.23 5.01 9.94
8/18/2022 6:15:00 PM 18.7 65.66 0.068 7.27 4.78 9.93
8/18/2022 6:30:00 PM 18.66 65.588 0.068 7.19 4.24 9.9
8/18/2022 6:45:00 PM 18.64 65.552 0.069 7.16 4.47 9.9
8/18/2022 7:00:00 PM 18.61 65.498 0.069 6.92 4.74 9.92
8/18/2022 7:15:00 PM 18.58 65.444 0.069 7.16 4.1 9.89
8/18/2022 7:30:00 PM 18.54 65.372 0.069 7.15 4.79 9.91
8/18/2022 7:45:00 PM 18.49 65.282 0.069 7.17 3.89 9.91
8/18/2022 8:00:00 PM 18.43 65.174 0.069 7.13 3.93 9.91
8/18/2022 8:15:00 PM 18.37 65.066 0.069 7.03 4.2 9.92
8/18/2022 8:30:00 PM 18.29 64.922 0.069 7.13 3.87 9.95
8/18/2022 8:45:00 PM 18.23 64.814 0.069 6.97 3.47 9.99
8/18/2022 9:00:00 PM 18.15 64.67 0.07 7.01 4.47 9.97
8/18/2022 9:15:00 PM 18.08 64.544 0.07 7.03 2.3 10.01
8/18/2022 9:30:00 PM 18 64.4 0.07 7.04 3.42 10.03
8/18/2022 9:45:00 PM 17.93 64.274 0.07 7.17 3.54 10.05
8/18/2022 10:00:00 PM 17.84 64.112 0.07 7.11 3.43 10.09
8/18/2022 10:15:00 PM 17.76 63.968 0.07 7.24 3.04 10.07
8/18/2022 10:30:00 PM 17.69 63.842 0.07 7.11 4.01 10.09
8/18/2022 10:45:00 PM 17.62 63.716 0.07 7.08 3.26 10.1
8/18/2022 11:00:00 PM 17.54 63.572 0.07 7.15 3.97 10.12
8/18/2022 11:15:00 PM 17.47 63.446 0.07 7.08 3.35 10.14
8/18/2022 11:30:00 PM 17.38 63.284 0.069 7.09 3.21 10.17
8/18/2022 11:45:00 PM 17.32 63.176 0.07 7.13 3.42 10.17
8/19/2022 12:00:00 AM 17.25 63.05 0.07 7.02 3.36 10.18
8/19/2022 12:15:00 AM 17.18 62.924 0.07 6.95 3.07 10.2
8/19/2022 12:30:00 AM 17.1 62.78 0.069 7.13 4.23 10.23
8/19/2022 12:45:00 AM 17.03 62.654 0.069 7.12 2.52 10.26
8/19/2022 1:00:00 AM 16.95 62.51 0.069 7.08 2.99 10.28
8/19/2022 1:15:00 AM 16.88 62.384 0.069 7.01 2.5 10.28
8/19/2022 1:30:00 AM 16.82 62.276 0.069 6.97 3.3 10.31
8/19/2022 1:45:00 AM 16.76 62.168 0.069 7 3.35 10.32
8/19/2022 2:00:00 AM 16.69 62.042 0.069 6.97 2.63 10.35
8/19/2022 2:15:00 AM 16.62 61.916 0.069 7.02 2.9 10.36
8/19/2022 2:30:00 AM 16.56 61.808 0.069 6.98 2.73 10.38
8/19/2022 2:45:00 AM 16.5 61.7 0.069 7.02 2.74 10.38
8/19/2022 3:00:00 AM 16.44 61.592 0.069 7.04 2.63 10.4
8/19/2022 3:15:00 AM 16.37 61.466 0.069 6.99 2.49 10.42
8/19/2022 3:30:00 AM 16.31 61.358 0.069 6.94 2.55 10.44
8/19/2022 3:45:00 AM 16.25 61.25 0.069 6.99 2.84 10.45
8/19/2022 4:00:00 AM 16.19 61.142 0.069 6.92 2.41 10.47
8/19/2022 4:15:00 AM 16.13 61.034 0.069 6.99 2.99 10.48
8/19/2022 4:30:00 AM 16.07 60.926 0.068 7.06 2.52 10.49
8/19/2022 4:45:00 AM 16.01 60.818 0.068 6.98 2.8 10.51
8/19/2022 5:00:00 AM 15.95 60.71 0.068 6.99 2.79 10.53
8/19/2022 5:15:00 AM 15.9 60.62 0.068 6.99 2.39 10.55
8/19/2022 5:30:00 AM 15.84 60.512 0.068 6.96 2.48 10.55
8/19/2022 5:45:00 AM 15.78 60.404 0.068 7.01 2.8 10.56
8/19/2022 6:00:00 AM 15.73 60.314 0.068 6.94 2.41 10.58
8/19/2022 6:15:00 AM 15.67 60.206 0.068 6.81 2.56 10.59
8/19/2022 6:30:00 AM 15.62 60.116 0.067 6.96 2.68 10.61
8/19/2022 6:45:00 AM 15.57 60.026 0.068 6.97 2.24 10.62
8/19/2022 7:00:00 AM 15.54 59.972 0.068 7.01 2.29 10.64
8/19/2022 7:15:00 AM 15.51 59.918 0.067 7.01 2.61 10.66
8/19/2022 7:30:00 AM 15.48 59.864 0.068 6.96 2.41 10.67
8/19/2022 7:45:00 AM 15.48 59.864 0.068 7 2.24 10.67
8/19/2022 8:00:00 AM 15.5 59.9 0.069 7.05 2.21 10.66
8/19/2022 8:15:00 AM 15.52 59.936 0.069 7.09 2.21 10.65
8/19/2022 8:30:00 AM 15.57 60.026 0.069 7.02 2.18 10.64
8/19/2022 8:45:00 AM 15.65 60.17 0.069 7.12 2.13 10.6
8/19/2022 9:00:00 AM 15.74 60.332 0.069 7.1 2.19 10.57
8/19/2022 9:15:00 AM 15.83 60.494 0.069 7.07 2.98 10.58
8/19/2022 9:30:00 AM 15.94 60.692 0.069 7.18 2.34 10.58
8/19/2022 9:45:00 AM 16.05 60.89 0.069 7.22 2.74 10.58
8/19/2022 10:00:00 AM 16.17 61.106 0.069 7.23 2.91 10.56
8/19/2022 10:15:00 AM 16.32 61.376 0.068 7.29 2.54 10.55
8/19/2022 10:30:00 AM 16.49 61.682 0.068 7.2 2.6 10.54
8/19/2022 10:45:00 AM 16.73 62.114 0.068 7.27 2.43 10.53
8/19/2022 11:00:00 AM 16.99 62.582 0.068 7.18 2.49 10.5
8/19/2022 11:15:00 AM 17.26 63.068 0.068 7.35 2.39 10.47
8/19/2022 11:30:00 AM 17.53 63.554 0.068 6.89 2.35 10.43
8/19/2022 11:45:00 AM 17.78 64.004 0.068 6.58 2.81 10.38
8/19/2022 12:00:00 PM 17.98 64.364 0.068 6.55 2.98 10.34
8/19/2022 12:15:00 PM 18.15 64.67 0.068 6.39 2.39 10.29
8/19/2022 12:30:00 PM 18.33 64.994 0.068 6.53 4.23 10.28
8/19/2022 12:45:00 PM 18.46 65.228 0.068 6.79 3.3 10.24
8/19/2022 1:00:00 PM 18.6 65.48 0.067 6.81 4.58 10.21
8/19/2022 1:15:00 PM 18.81 65.858 0.067 5.85 4.12 10.16
8/19/2022 1:30:00 PM 19.01 66.218 0.067 5.77 3.64 10.08
8/19/2022 1:45:00 PM 19.24 66.632 0.067 5.72 4.31 10.01
8/19/2022 2:00:00 PM 19.49 67.082 0.067 5.53 4.28 9.93
8/19/2022 2:15:00 PM 19.72 67.496 0.067 5.97 3.57 9.86
8/19/2022 2:30:00 PM 19.97 67.946 0.067 6.12 3.05 9.82
8/19/2022 2:45:00 PM 20.12 68.216 0.068 5.97 3.26 9.77
8/19/2022 3:00:00 PM 20.17 68.306 0.068 5.6 3.93 9.75
8/19/2022 3:15:00 PM 20.2 68.36 0.068 5.72 3.59 9.75
8/19/2022 3:30:00 PM 20.25 68.45 0.068 5.77 4.5 9.73
8/19/2022 3:45:00 PM 20.28 68.504 0.068 5.85 3.91 9.73
8/19/2022 4:00:00 PM 20.31 68.558 0.068 5.83 4.05 9.73
8/19/2022 4:15:00 PM 20.26 68.468 0.067 5.69 4.39 9.75
8/19/2022 4:30:00 PM 20.22 68.396 0.067 6.36 4.73 9.75
8/19/2022 4:45:00 PM 20.16 68.288 0.067 6.34 3.88 9.77
8/19/2022 5:00:00 PM 20.09 68.162 0.066 6.37 4.71 9.78
8/19/2022 5:15:00 PM 20.04 68.07201 0.065 6.37 3.74 9.81
8/19/2022 5:30:00 PM 19.99 67.982 0.064 6.48 2.97 9.81
8/19/2022 5:45:00 PM 19.97 67.946 0.063 6.9 4.61 9.8
8/19/2022 6:00:00 PM 19.95 67.91 0.06 6.15 3.66 9.82
8/19/2022 6:15:00 PM 19.92 67.856 0.058 6.01 4.22 9.82
8/19/2022 6:30:00 PM 19.87 67.766 0.057 5.94 4.39 9.83
8/19/2022 6:45:00 PM 19.82 67.676 0.055 5.82 3.93 9.84
8/19/2022 7:00:00 PM 19.76 67.568 0.057 5.91 4.09 9.84
8/19/2022 7:15:00 PM 19.69 67.442 0.063 5.91 3.39 9.82
8/19/2022 7:30:00 PM 19.62 67.316 0.068 5.96 3.68 9.78
8/19/2022 7:45:00 PM 19.54 67.172 0.069 5.88 4.2 9.69
8/19/2022 8:00:00 PM 19.46 67.028 0.07 5.87 3.46 9.68
8/19/2022 8:15:00 PM 19.39 66.902 0.07 5.93 2.85 9.61
8/19/2022 8:30:00 PM 19.32 66.776 0.07 6.04 4.46 9.57
8/19/2022 8:45:00 PM 19.25 66.65 0.07 6.03 3.4 9.54
8/19/2022 9:00:00 PM 19.18 66.524 0.07 5.96 3.27 9.52
8/19/2022 9:15:00 PM 19.12 66.416 0.07 6.02 4.75 9.54
8/19/2022 9:30:00 PM 19.05 66.29 0.07 5.92 4.2 9.56
8/19/2022 9:45:00 PM 18.99 66.182 0.07 6.12 4.05 9.58
8/19/2022 10:00:00 PM 18.92 66.056 0.07 6 3.78 9.57
8/19/2022 10:15:00 PM 18.86 65.948 0.07 6.05 3.53 9.61
8/19/2022 10:30:00 PM 18.8 65.84 0.07 6.02 4.27 9.64
8/19/2022 10:45:00 PM 18.73 65.714 0.07 6.02 4.56 9.65
8/19/2022 11:00:00 PM 18.67 65.606 0.07 6 4.03 9.68
8/19/2022 11:15:00 PM 18.6 65.48 0.07 6.08 3.61 9.71
8/19/2022 11:30:00 PM 18.55 65.39 0.07 5.98 3.48 9.73
8/19/2022 11:45:00 PM 18.49 65.282 0.07 6.08 4.17 9.76
8/20/2022 12:00:00 AM 18.42 65.156 0.07 6.15 4.3 9.8
8/20/2022 12:15:00 AM 18.36 65.048 0.07 6.89 3.79 9.83
8/20/2022 12:30:00 AM 18.3 64.94 0.07 6.76 4.25 9.86
8/20/2022 12:45:00 AM 18.23 64.814 0.07 6.71 3.52 9.9
8/20/2022 1:00:00 AM 18.17 64.706 0.07 5.98 4.02 9.95
8/20/2022 1:15:00 AM 18.11 64.598 0.07 5.99 3.02 9.97
8/20/2022 1:30:00 AM 18.05 64.49 0.07 5.86 3.96 9.99
8/20/2022 1:45:00 AM 17.99 64.382 0.07 6.89 3.49 10
8/20/2022 2:00:00 AM 17.93 64.274 0.07 5.96 3.56 10.01
8/20/2022 2:15:00 AM 17.86 64.148 0.07 6.22 3.76 10.05
8/20/2022 2:30:00 AM 17.81 64.058 0.07 5.96 3.2 10.07
8/20/2022 2:45:00 AM 17.75 63.95 0.07 6.92 2.66 10.09
8/20/2022 3:00:00 AM 17.7 63.86 0.07 7.17 2.91 10.11
8/20/2022 3:15:00 AM 17.65 63.77 0.07 6.99 2.77 10.12
8/20/2022 3:30:00 AM 17.59 63.662 0.07 6.96 2.51 10.15
8/20/2022 3:45:00 AM 17.55 63.59 0.07 6.65 3.09 10.17
8/20/2022 4:00:00 AM 17.5 63.5 0.07 6.86 2.7 10.19
8/20/2022 4:15:00 AM 17.46 63.428 0.069 6.21 2.67 10.21
8/20/2022 4:30:00 AM 17.42 63.356 0.069 6.14 2.41 10.23
8/20/2022 4:45:00 AM 17.38 63.284 0.069 6.51 2.41 10.23
8/20/2022 5:00:00 AM 17.35 63.23 0.069 6.55 3.01 10.25
8/20/2022 5:15:00 AM 17.33 63.194 0.069 6.89 2.56 10.27
8/20/2022 5:30:00 AM 17.3 63.14 0.069 6.85 2.55 10.28
8/20/2022 5:45:00 AM 17.29 63.122 0.068 6.82 2.23 10.28
8/20/2022 6:00:00 AM 17.27 63.086 0.068 6.07 2.53 10.29
8/20/2022 6:15:00 AM 17.26 63.068 0.068 6.52 3 10.3
8/20/2022 6:30:00 AM 17.25 63.05 0.068 6.33 3.11 10.31
8/20/2022 6:45:00 AM 17.24 63.032 0.068 6.89 2.38 10.32
8/20/2022 7:00:00 AM 17.24 63.032 0.067 6.11 2.32 10.33
8/20/2022 7:15:00 AM 17.24 63.032 0.067 6.97 2.63 10.34
8/20/2022 7:30:00 AM 17.25 63.05 0.067 6.73 2.34 10.34
8/20/2022 7:45:00 AM 17.28 63.104 0.067 6.79 2.34 10.35
8/20/2022 8:00:00 AM 17.3 63.14 0.067 6.69 2.2 10.34
8/20/2022 8:15:00 AM 17.32 63.176 0.068 6.88 2.18 10.34
8/20/2022 8:30:00 AM 17.36 63.248 0.068 6.49 2.39 10.32
8/20/2022 8:45:00 AM 17.42 63.356 0.069 6.52 2.1 10.28
8/20/2022 9:00:00 AM 17.5 63.5 0.069 6.54 2.35 10.26
8/20/2022 9:15:00 AM 17.59 63.662 0.069 6.02 3.06 10.27
8/20/2022 9:30:00 AM 17.69 63.842 0.068 6 2.73 10.28
8/20/2022 9:45:00 AM 17.8 64.04 0.068 5.97 3.16 10.28
8/20/2022 10:00:00 AM 17.96 64.328 0.068 6 2.21 10.26
8/20/2022 10:15:00 AM 18.04 64.472 0.068 6.01 3.48 10.28
8/20/2022 10:30:00 AM 18.1 64.58 0.068 5.98 2.72 10.26
8/20/2022 10:45:00 AM 18.34 65.012 0.068 5.98 2.29 10.24
8/20/2022 11:00:00 AM 18.59 65.462 0.068 5.98 2.51 10.21
8/20/2022 11:15:00 AM 18.84 65.912 0.067 5.99 2.57 10.16
8/20/2022 11:30:00 AM 19.14 66.452 0.067 6 3.07 10.12
8/20/2022 11:45:00 AM 19.4 66.92 0.067 6.06 2.95 10.07
8/20/2022 12:00:00 PM 19.6 67.28 0.067 5.74 3.63 10.03
8/20/2022 12:15:00 PM 19.67 67.406 0.067 5.58 4.01 10.01
8/20/2022 12:30:00 PM 19.83 67.694 0.067 5.99 3.07 9.97
8/20/2022 12:45:00 PM 19.95 67.91 0.067 5.89 3.18 9.92
8/20/2022 1:00:00 PM 19.95 67.91 0.066 5.86 2.05 9.9
8/20/2022 1:15:00 PM 20.15 68.27 0.067 5.76 3.06 9.87
8/20/2022 1:30:00 PM 20.24 68.432 0.066 5.81 2.69 9.84
8/20/2022 1:45:00 PM 20.41 68.738 0.066 5.78 2.38 9.8
8/20/2022 2:00:00 PM 20.57 69.026 0.065 5.81 2.13 9.76
8/20/2022 2:15:00 PM 20.69 69.242 0.066 5.73 3.45 9.73
8/20/2022 2:30:00 PM 20.86 69.548 0.065 5.64 3.43 9.7
8/20/2022 2:45:00 PM 20.91 69.638 0.064 5.7 3.23 9.69
8/20/2022 3:00:00 PM 20.99 69.782 0.063 4.82 2.94 9.66
8/20/2022 3:15:00 PM 21.11 69.998 0.061 5.47 3.12 9.66
8/20/2022 3:30:00 PM 21.2 70.16 0.061 5.77 2.39 9.63
8/20/2022 3:45:00 PM 21.2 70.16 0.059 5.58 3.81 9.63
8/20/2022 4:00:00 PM 21.28 70.304 0.057 5.71 2.27 9.62
8/20/2022 4:15:00 PM 21.29 70.32201 0.054 5.66 3 9.61
8/20/2022 4:30:00 PM 21.32 70.376 0.042 5.63 2.08 9.61
8/20/2022 4:45:00 PM 21.31 70.358 0.04 5.69 2.07 9.62
8/20/2022 5:00:00 PM 21.3 70.34 0.036 5.63 2.34 9.62
8/20/2022 5:15:00 PM 21.25 70.25 0.034 5.67 4.37 9.62
8/20/2022 5:30:00 PM 21.19 70.142 0.032 5.63 2.85 9.63
8/20/2022 5:45:00 PM 21.22 70.196 0.03 5.77 2.73 9.63
8/20/2022 6:00:00 PM 21.19 70.142 0.028 5.86 2.47 9.63
8/20/2022 6:15:00 PM 21.19 70.142 0.024 5.81 3.49 9.64
8/20/2022 6:30:00 PM 21.16 70.088 0.021 5.84 4.51 9.66
8/20/2022 6:45:00 PM 21.11 69.998 0.02 5.79 3.68 9.67
8/20/2022 7:00:00 PM 21.05 69.89 0.017 5.77 4.61 9.67
8/20/2022 7:15:00 PM 20.99 69.782 0.018 5.7 3.54 9.68
8/20/2022 7:30:00 PM 20.93 69.674 0.015 5.66 3.41 9.69
8/20/2022 7:45:00 PM 20.89 69.602 0.014 5.78 2.73 9.7
8/20/2022 8:00:00 PM 20.82 69.476 0.013 5.77 2.27 9.71
8/20/2022 8:15:00 PM 20.75 69.35 0.012 5.73 3.27 9.72
8/20/2022 8:30:00 PM 20.68 69.224 0.01 5.7 3.15 9.73
8/20/2022 8:45:00 PM 20.61 69.098 0.009 5.68 2.17 9.74
8/20/2022 9:00:00 PM 20.53 68.954 0.008 5.7 3.51 9.76
8/20/2022 9:15:00 PM 20.46 68.828 0.007 5.7 3.62 9.77
8/20/2022 9:30:00 PM 20.37 68.666 0.006 5.77 3.03 9.79
8/20/2022 9:45:00 PM 20.22 68.396 0.004 5.68 2.53 9.82
8/20/2022 10:00:00 PM 20.13 68.234 0.005 5.71 3.23 9.83
8/20/2022 10:15:00 PM 20.03 68.054 0.005 5.75 4.3 9.83
8/20/2022 10:30:00 PM 19.94 67.892 0.003 5.78 2.46 9.86
8/20/2022 10:45:00 PM 19.81 67.658 0.004 5.78 3.42 9.88
8/20/2022 11:00:00 PM 19.68 67.424 0 5.75 2.43 9.91
8/20/2022 11:15:00 PM 19.62 67.316 0.001 7.4 2.08 9.91
8/20/2022 11:30:00 PM 19.46 67.028 0.001 7.49 2.29 9.95
8/20/2022 11:45:00 PM 19.35 66.83 0.003 7.45 2.13 9.96
8/21/2022 12:00:00 AM 19.24 66.632 0.004 7.49 2.12 9.98
8/21/2022 12:15:00 AM 19.1 66.38 0.001 7.46 2.39 10
8/21/2022 12:30:00 AM 19.04 66.272 0.003 7.47 2.31 10.02
8/21/2022 12:45:00 AM 18.89 66.002 0.003 7.47 2.19 10.05
8/21/2022 1:00:00 AM 18.78 65.804 0.001 7.46 2.14 10.07
8/21/2022 1:15:00 AM 18.71 65.67799 0 7.45 2.18 10.08
8/21/2022 1:30:00 AM 18.62 65.516 0 7.41 3.04 10.11
8/21/2022 1:45:00 AM 18.51 65.318 0 7.43 2.62 10.12
8/21/2022 2:00:00 AM 18.43 65.174 0 7.38 3.02 10.14
8/21/2022 2:15:00 AM 18.36 65.048 0 7.3 3.29 10.16
8/21/2022 2:30:00 AM 18.3 64.94 0 7.33 3.12 10.16
8/21/2022 2:45:00 AM 18.2 64.76 0 7.32 3.08 10.19
8/21/2022 3:00:00 AM 18.16 64.688 0 7.29 3.92 10.2
8/21/2022 3:15:00 AM 18.08 64.544 0 7.32 3 10.21
8/21/2022 3:30:00 AM 18.09 64.562 0 7.33 2.82 10.21
8/21/2022 3:45:00 AM 18.06 64.508 0 7.33 2.84 10.21
8/21/2022 4:00:00 AM 17.97 64.346 0 7.33 2.37 10.21
8/21/2022 4:15:00 AM 17.93 64.274 0 7.28 2.15 10.24
8/21/2022 4:30:00 AM 17.94 64.292 0.003 7.32 2.31 10.24
8/21/2022 4:45:00 AM 17.89 64.202 0.003 7.29 2.39 10.25
8/21/2022 5:00:00 AM 17.84 64.112 0.003 7.29 2.27 10.26
8/21/2022 5:15:00 AM 17.79 64.022 0.004 7.34 2.29 10.28
8/21/2022 5:30:00 AM 17.77 63.986 0.004 7.2 2.48 10.27
8/21/2022 5:45:00 AM 17.75 63.95 0.004 7.2 2.37 10.28
8/21/2022 6:00:00 AM 17.71 63.878 0.004 7.21 2.38 10.29
8/21/2022 6:15:00 AM 17.72 63.896 0.004 7.27 2.22 10.28
8/21/2022 6:30:00 AM 17.68 63.824 0.004 7.21 2.16 10.3
8/21/2022 6:45:00 AM 17.69 63.842 0.005 7.29 2.18 10.29
8/21/2022 7:00:00 AM 17.71 63.878 0.004 7.2 2.34 10.3
8/21/2022 7:15:00 AM 17.75 63.95 0.005 7.29 2.53 10.29
8/21/2022 7:30:00 AM 17.83 64.094 0.005 7.15 2.61 10.28
8/21/2022 7:45:00 AM 17.89 64.202 0.007 7.17 2.43 10.27
8/21/2022 8:00:00 AM 17.96 64.328 0.007 7.11 2.52 10.26
8/21/2022 8:15:00 AM 18.03 64.454 0.009 7.17 2.47 10.25
8/21/2022 8:30:00 AM 18.09 64.562 0.009 7.28 2.72 10.25
8/21/2022 8:45:00 AM 18.15 64.67 0.01 7.2 2.12 10.24
8/21/2022 9:00:00 AM 18.2 64.76 0.011 7.23 2.68 10.23
8/21/2022 9:15:00 AM 18.24 64.832 0.012 7.25 3.06 10.23
8/21/2022 9:30:00 AM 18.25 64.85 0.013 7.13 2.23 10.23
8/21/2022 9:45:00 AM 18.28 64.904 0.015 7.14 2.19 10.22
8/21/2022 10:00:00 AM 18.34 65.012 0.016 7.07 2.46 10.21
8/21/2022 10:15:00 AM 18.39 65.102 0.018 7.14 2.78 10.2
8/21/2022 10:30:00 AM 18.45 65.21 0.021 7.23 2.41 10.2
8/21/2022 10:45:00 AM 18.52 65.336 0.021 7.25 2.27 10.18
8/21/2022 11:00:00 AM 18.58 65.444 0.023 7.25 2.13 10.17
8/21/2022 11:15:00 AM 18.65 65.57 0.025 7.26 2.41 10.15
8/21/2022 11:30:00 AM 18.75 65.75 0.03 7.3 3.5 10.13
8/21/2022 11:45:00 AM 18.89 66.002 0.033 7.33 2.16 10.1
8/21/2022 12:00:00 PM 18.94 66.092 0.034 7.23 4.21 10.09
8/21/2022 12:15:00 PM 19.02 66.236 0.034 7.12 2.96 10.07
8/21/2022 12:30:00 PM 19.09 66.362 0.035 7.2 2.57 10.06
8/21/2022 12:45:00 PM 19.17 66.506 0.036 7.09 2.94 10.04
8/21/2022 1:00:00 PM 19.25 66.65 0.035 6.94 2.32 10.02
8/21/2022 1:15:00 PM 19.43 66.974 0.037 7.02 3.51 9.98
8/21/2022 1:30:00 PM 19.49 67.082 0.037 7.29 2.96 9.97
8/21/2022 1:45:00 PM 19.57 67.226 0.037 7.07 2.92 9.95
8/21/2022 2:00:00 PM 19.69 67.442 0.036 7.13 2.7 9.93
8/21/2022 2:15:00 PM 19.74 67.532 0.035 7 3.84 9.91
8/21/2022 2:30:00 PM 19.75 67.55 0.034 6.88 2.98 9.9
8/21/2022 2:45:00 PM 19.77 67.586 0.031 7.1 3.01 9.9
8/21/2022 3:00:00 PM 19.77 67.586 0.03 6.88 3.11 9.89
8/21/2022 3:15:00 PM 19.75 67.55 0.03 7.02 3.13 9.9
8/21/2022 3:30:00 PM 19.72 67.496 0.029 6.8 2.28 9.9
8/21/2022 3:45:00 PM 19.7 67.46 0.028 7.07 3.31 9.9
8/21/2022 4:00:00 PM 19.68 67.424 0.03 7.06 4.84 9.91
8/21/2022 4:15:00 PM 19.63 67.334 0.039 7.01 2.35 9.9
8/21/2022 4:30:00 PM 19.58 67.244 0.063 6.8 3.86 9.89
8/21/2022 4:45:00 PM 19.56 67.208 0.068 6.98 2.15 9.82
8/21/2022 5:00:00 PM 19.54 67.172 0.068 6.97 2.29 9.75
8/21/2022 5:15:00 PM 19.52 67.136 0.068 7.11 2.56 9.72
8/21/2022 5:30:00 PM 19.49 67.082 0.068 7.15 2.48 9.66
8/21/2022 5:45:00 PM 19.47 67.046 0.068 6.95 2.39 9.62
8/21/2022 6:00:00 PM 19.46 67.028 0.068 7.04 2.31 9.57
8/21/2022 6:15:00 PM 19.45 67.01 0.068 6.97 2.1 9.57
8/21/2022 6:30:00 PM 19.43 66.974 0.068 7.06 2.13 9.48
8/21/2022 6:45:00 PM 19.41 66.938 0.068 6.97 2.15 9.46
8/21/2022 7:00:00 PM 19.39 66.902 0.068 6.95 2.13 9.42
8/21/2022 7:15:00 PM 19.37 66.866 0.069 7.05 2.21 9.41
8/21/2022 7:30:00 PM 19.34 66.812 0.069 6.9 2.36 9.41
8/21/2022 7:45:00 PM 19.32 66.776 0.069 7.06 2.41 9.38
8/21/2022 8:00:00 PM 19.29 66.722 0.069 7.09 2.43 9.37
8/21/2022 8:15:00 PM 19.25 66.65 0.069 7.08 2.28 9.36
8/21/2022 8:30:00 PM 19.22 66.596 0.069 7.07 2.27 9.39
8/21/2022 8:45:00 PM 19.19 66.542 0.069 7.14 2.44 9.33
8/21/2022 9:00:00 PM 19.16 66.488 0.07 7.05 2.42 9.36
8/21/2022 9:15:00 PM 19.13 66.434 0.07 7.08 2.2 9.37
8/21/2022 9:30:00 PM 19.1 66.38 0.07 7.04 2.52 9.37
8/21/2022 9:45:00 PM 19.08 66.344 0.07 6.97 2.37 9.39
8/21/2022 10:00:00 PM 19.05 66.29 0.07 7.02 2.16 9.39
8/21/2022 10:15:00 PM 19.02 66.236 0.07 7.06 2.26 9.43
8/21/2022 10:30:00 PM 18.98 66.164 0.07 7.08 2.23 9.44
8/21/2022 10:45:00 PM 18.95 66.11 0.07 7.03 2.21 9.45
8/21/2022 11:00:00 PM 18.91 66.038 0.07 6.99 2.23 9.5
8/21/2022 11:15:00 PM 18.88 65.984 0.07 7.14 2.26 9.47
8/21/2022 11:30:00 PM 18.85 65.93 0.07 7.08 2.28 9.47
8/21/2022 11:45:00 PM 18.82 65.876 0.07 7.03 2.29 9.49
8/22/2022 12:00:00 AM 18.79 65.82201 0.07 7.29 2.27 9.49
8/22/2022 12:15:00 AM 18.76 65.768 0.07 7.1 2.25 9.51
8/22/2022 12:30:00 AM 18.74 65.732 0.07 6.99 2.22 9.5
8/22/2022 12:45:00 AM 18.71 65.67799 0.07 6.98 2.21 9.52
8/22/2022 1:00:00 AM 18.68 65.624 0.07 7.04 2.33 9.53
8/22/2022 1:15:00 AM 18.66 65.588 0.07 7.09 2.32 9.53
8/22/2022 1:30:00 AM 18.63 65.534 0.07 7.1 2.28 9.53
8/22/2022 1:45:00 AM 18.61 65.498 0.07 7.01 2.27 9.54
8/22/2022 2:00:00 AM 18.59 65.462 0.07 7.07 2.38 9.55
8/22/2022 2:15:00 AM 18.56 65.408 0.07 6.96 2.55 9.55
8/22/2022 2:30:00 AM 18.54 65.372 0.07 7.14 2.32 9.56
8/22/2022 2:45:00 AM 18.52 65.336 0.07 7.06 3.07 9.56
8/22/2022 3:00:00 AM 18.5 65.3 0.07 7.04 2.38 9.55
8/22/2022 3:15:00 AM 18.48 65.264 0.07 7.03 2.4 9.56
8/22/2022 3:30:00 AM 18.47 65.246 0.069 7.1 2.44 9.55
8/22/2022 3:45:00 AM 18.45 65.21 0.069 7.09 2.43 9.49
8/22/2022 4:00:00 AM 18.43 65.174 0.069 7.23 2.4 9.49
8/22/2022 4:15:00 AM 18.42 65.156 0.069 7.26 2.48 9.48
8/22/2022 4:30:00 AM 18.4 65.12 0.069 7.14 2.42 9.48
8/22/2022 4:45:00 AM 18.39 65.102 0.069 7.26 2.43 9.5
8/22/2022 5:00:00 AM 18.38 65.084 0.069 7.26 2.43 9.52
8/22/2022 5:15:00 AM 18.36 65.048 0.069 7.3 2.48 9.53
8/22/2022 5:30:00 AM 18.35 65.03 0.069 7.25 2.48 9.52
8/22/2022 5:45:00 AM 18.34 65.012 0.069 7.08 2.46 9.51
8/22/2022 6:00:00 AM 18.34 65.012 0.069 7.24 2.39 9.51
8/22/2022 6:15:00 AM 18.33 64.994 0.069 7.24 2.39 9.53
8/22/2022 6:30:00 AM 18.39 65.102 0.062 7.19 4.18 9.63
8/22/2022 6:45:00 AM 18.37 65.066 0.062 7.02 4.22 9.59
8/22/2022 7:00:00 AM 18.37 65.066 0.06 6.91 3.84 9.57
8/22/2022 7:15:00 AM 18.36 65.048 0.06 6.84 8.33 9.59
8/22/2022 7:30:00 AM 18.34 65.012 0.061 6.91 8.08 9.6
8/22/2022 7:45:00 AM 18.32 64.976 0.062 6.96 5.7 9.69
8/22/2022 8:00:00 AM 18.3 64.94 0.061 7 4.37 9.75
8/22/2022 8:15:00 AM 18.29 64.922 0.062 7.02 3.47 9.78
8/22/2022 8:30:00 AM 18.28 64.904 0.062 7.04 3.4 9.81
8/22/2022 8:45:00 AM 18.28 64.904 0.061 7.05 3.71 9.86
8/22/2022 9:00:00 AM 18.29 64.922 0.061 7.05 4.02 9.89

These are provisional data and have not been subject to a quality assurance process, but rather are the raw data reported by the instrument.
H: value is above sensor operating range
L: value is below sensor operating range
Offline: station is not reporting data
NC: parameter is not collected at site

Data Availability & Limitations

Uncertainty and potential for error can be associated with environmental monitoring data. Provisional data have not been subject to a quality assurance process, but rather are the raw data reported by the instrument. Data users are cautioned to consider carefully the provisional nature of the information before using it for decisions that concern personal or public safety or the conduct of business that involves substantial monetary or operational consequences.

Approved data are currently available by request by emailing: srbc@srbc.net. Approved data have been subject to a quality assurance process to correct for equipment or fouling drift. Data recorded during equipment malfunctions have been removed.

View Historical Stations that have been discontinued.